<?xml version="1.0" encoding="UTF-8" standalone="no" ?><gpx xmlns="http://www.topografix.com/GPX/1/1" xmlns:gpxx="http://www.garmin.com/xmlschemas/GpxExtensions/v3" xmlns:wptx1="http://www.garmin.com/xmlschemas/WaypointExtension/v1" xmlns:gpxtpx="http://www.garmin.com/xmlschemas/TrackPointExtension/v1" creator="GuideVTT.com" version="1.1" xmlns:xsi="http://www.w3.org/2001/XMLSchema-instance" xsi:schemaLocation="http://www.topografix.com/GPX/1/1 http://www.topografix.com/GPX/1/1/gpx.xsd http://www.garmin.com/xmlschemas/GpxExtensions/v3 http://www8.garmin.com/xmlschemas/GpxExtensionsv3.xsd http://www.garmin.com/xmlschemas/WaypointExtension/v1 http://www8.garmin.com/xmlschemas/WaypointExtensionv1.xsd http://www.garmin.com/xmlschemas/TrackPointExtension/v1 http://www.garmin.com/xmlschemas/TrackPointExtensionv1.xsd">
<metadata><link href="http://www.garmin.com"><text>Garmin International</text></link><time>2013-06-22T15:13:50Z</time></metadata>
<trk><name>rp2016_lacbleu.gpx</name><extensions><gpxx:TrackExtension><gpxx:DisplayColor>Cyan</gpxx:DisplayColor></gpxx:TrackExtension></extensions><trkseg>
<trkpt lat="46.05406" lon="7.49039"><ele>1842.8</ele><time>2016-06-24T11:06:14Z</time></trkpt>
<trkpt lat="46.05406" lon="7.49039"><ele>1842.8</ele><time>2016-06-24T11:06:15Z</time></trkpt>
<trkpt lat="46.05409" lon="7.4903"><ele>1842.4</ele><time>2016-06-24T11:06:36Z</time></trkpt>
<trkpt lat="46.05417" lon="7.49033"><ele>1842.2</ele><time>2016-06-24T11:06:43Z</time></trkpt>
<trkpt lat="46.05423" lon="7.49033"><ele>1842.2</ele><time>2016-06-24T11:06:48Z</time></trkpt>
<trkpt lat="46.05441" lon="7.49043"><ele>1842.8</ele><time>2016-06-24T11:06:59Z</time></trkpt>
<trkpt lat="46.05454" lon="7.4906"><ele>1843.4</ele><time>2016-06-24T11:07:07Z</time></trkpt>
<trkpt lat="46.05462" lon="7.49073"><ele>1843.6</ele><time>2016-06-24T11:07:12Z</time></trkpt>
<trkpt lat="46.05464" lon="7.49075"><ele>1843.6</ele><time>2016-06-24T11:07:13Z</time></trkpt>
<trkpt lat="46.05472" lon="7.49085"><ele>1844</ele><time>2016-06-24T11:07:17Z</time></trkpt>
<trkpt lat="46.05488" lon="7.491"><ele>1844.6</ele><time>2016-06-24T11:07:24Z</time></trkpt>
<trkpt lat="46.05516" lon="7.49111"><ele>1844.8</ele><time>2016-06-24T11:07:35Z</time></trkpt>
<trkpt lat="46.05533" lon="7.491"><ele>1844</ele><time>2016-06-24T11:07:40Z</time></trkpt>
<trkpt lat="46.05554" lon="7.49089"><ele>1843.2</ele><time>2016-06-24T11:07:45Z</time></trkpt>
<trkpt lat="46.05574" lon="7.49084"><ele>1842.6</ele><time>2016-06-24T11:07:50Z</time></trkpt>
<trkpt lat="46.05591" lon="7.49086"><ele>1842.4</ele><time>2016-06-24T11:07:54Z</time></trkpt>
<trkpt lat="46.05609" lon="7.49093"><ele>1842.8</ele><time>2016-06-24T11:07:58Z</time></trkpt>
<trkpt lat="46.05628" lon="7.49101"><ele>1842.6</ele><time>2016-06-24T11:08:02Z</time></trkpt>
<trkpt lat="46.05647" lon="7.49108"><ele>1842.8</ele><time>2016-06-24T11:08:06Z</time></trkpt>
<trkpt lat="46.05661" lon="7.49109"><ele>1842.6</ele><time>2016-06-24T11:08:09Z</time></trkpt>
<trkpt lat="46.0568" lon="7.49108"><ele>1843</ele><time>2016-06-24T11:08:13Z</time></trkpt>
<trkpt lat="46.057" lon="7.49106"><ele>1842.6</ele><time>2016-06-24T11:08:17Z</time></trkpt>
<trkpt lat="46.05704" lon="7.49105"><ele>1842.2</ele><time>2016-06-24T11:08:18Z</time></trkpt>
<trkpt lat="46.05722" lon="7.49101"><ele>1841.2</ele><time>2016-06-24T11:08:22Z</time></trkpt>
<trkpt lat="46.05743" lon="7.49094"><ele>1840.2</ele><time>2016-06-24T11:08:26Z</time></trkpt>
<trkpt lat="46.05748" lon="7.49094"><ele>1840.2</ele><time>2016-06-24T11:08:27Z</time></trkpt>
<trkpt lat="46.0577" lon="7.49096"><ele>1838.8</ele><time>2016-06-24T11:08:31Z</time></trkpt>
<trkpt lat="46.05788" lon="7.491"><ele>1837.6</ele><time>2016-06-24T11:08:34Z</time></trkpt>
<trkpt lat="46.05807" lon="7.49104"><ele>1837.2</ele><time>2016-06-24T11:08:37Z</time></trkpt>
<trkpt lat="46.05826" lon="7.4911"><ele>1836.4</ele><time>2016-06-24T11:08:40Z</time></trkpt>
<trkpt lat="46.05845" lon="7.49118"><ele>1836</ele><time>2016-06-24T11:08:43Z</time></trkpt>
<trkpt lat="46.05864" lon="7.49125"><ele>1835.6</ele><time>2016-06-24T11:08:46Z</time></trkpt>
<trkpt lat="46.05882" lon="7.49134"><ele>1835.6</ele><time>2016-06-24T11:08:49Z</time></trkpt>
<trkpt lat="46.05894" lon="7.4914"><ele>1835.6</ele><time>2016-06-24T11:08:51Z</time></trkpt>
<trkpt lat="46.05906" lon="7.49145"><ele>1836</ele><time>2016-06-24T11:08:53Z</time></trkpt>
<trkpt lat="46.05926" lon="7.49146"><ele>1835</ele><time>2016-06-24T11:08:56Z</time></trkpt>
<trkpt lat="46.05946" lon="7.49145"><ele>1835.4</ele><time>2016-06-24T11:08:59Z</time></trkpt>
<trkpt lat="46.05968" lon="7.49143"><ele>1834.8</ele><time>2016-06-24T11:09:02Z</time></trkpt>
<trkpt lat="46.05987" lon="7.49142"><ele>1833.8</ele><time>2016-06-24T11:09:05Z</time></trkpt>
<trkpt lat="46.06002" lon="7.49141"><ele>1833.6</ele><time>2016-06-24T11:09:09Z</time></trkpt>
<trkpt lat="46.06002" lon="7.49131"><ele>1834.8</ele><time>2016-06-24T11:09:16Z</time></trkpt>
<trkpt lat="46.06001" lon="7.49131"><ele>1834.6</ele><time>2016-06-24T11:09:17Z</time></trkpt>
<trkpt lat="46.05999" lon="7.49131"><ele>1834.8</ele><time>2016-06-24T11:09:19Z</time></trkpt>
<trkpt lat="46.05998" lon="7.49131"><ele>1834.8</ele><time>2016-06-24T11:09:20Z</time></trkpt>
<trkpt lat="46.05993" lon="7.4913"><ele>1835.4</ele><time>2016-06-24T11:09:25Z</time></trkpt>
<trkpt lat="46.05988" lon="7.49128"><ele>1836</ele><time>2016-06-24T11:09:30Z</time></trkpt>
<trkpt lat="46.05987" lon="7.49127"><ele>1836.2</ele><time>2016-06-24T11:09:31Z</time></trkpt>
<trkpt lat="46.05986" lon="7.49127"><ele>1836.4</ele><time>2016-06-24T11:09:32Z</time></trkpt>
<trkpt lat="46.05984" lon="7.49127"><ele>1836.4</ele><time>2016-06-24T11:09:34Z</time></trkpt>
<trkpt lat="46.0598" lon="7.49126"><ele>1837</ele><time>2016-06-24T11:09:38Z</time></trkpt>
<trkpt lat="46.05978" lon="7.49126"><ele>1837.2</ele><time>2016-06-24T11:09:39Z</time></trkpt>
<trkpt lat="46.05977" lon="7.49126"><ele>1837.4</ele><time>2016-06-24T11:09:40Z</time></trkpt>
<trkpt lat="46.05976" lon="7.49126"><ele>1837.6</ele><time>2016-06-24T11:09:41Z</time></trkpt>
<trkpt lat="46.05969" lon="7.49125"><ele>1839.4</ele><time>2016-06-24T11:09:49Z</time></trkpt>
<trkpt lat="46.05965" lon="7.49124"><ele>1840</ele><time>2016-06-24T11:09:53Z</time></trkpt>
<trkpt lat="46.05959" lon="7.49123"><ele>1840.4</ele><time>2016-06-24T11:09:59Z</time></trkpt>
<trkpt lat="46.05952" lon="7.49122"><ele>1841</ele><time>2016-06-24T11:10:05Z</time></trkpt>
<trkpt lat="46.05947" lon="7.49119"><ele>1841.8</ele><time>2016-06-24T11:10:10Z</time></trkpt>
<trkpt lat="46.05946" lon="7.49118"><ele>1842.2</ele><time>2016-06-24T11:10:12Z</time></trkpt>
<trkpt lat="46.0594" lon="7.49112"><ele>1843</ele><time>2016-06-24T11:10:18Z</time></trkpt>
<trkpt lat="46.05935" lon="7.49106"><ele>1844.8</ele><time>2016-06-24T11:10:24Z</time></trkpt>
<trkpt lat="46.05925" lon="7.49093"><ele>1848.4</ele><time>2016-06-24T11:10:39Z</time></trkpt>
<trkpt lat="46.05919" lon="7.49087"><ele>1849.4</ele><time>2016-06-24T11:10:48Z</time></trkpt>
<trkpt lat="46.05912" lon="7.49076"><ele>1851.6</ele><time>2016-06-24T11:11:00Z</time></trkpt>
<trkpt lat="46.05903" lon="7.49064"><ele>1853.6</ele><time>2016-06-24T11:11:15Z</time></trkpt>
<trkpt lat="46.05898" lon="7.49057"><ele>1854.6</ele><time>2016-06-24T11:11:22Z</time></trkpt>
<trkpt lat="46.05889" lon="7.49046"><ele>1856</ele><time>2016-06-24T11:11:34Z</time></trkpt>
<trkpt lat="46.05882" lon="7.49035"><ele>1857</ele><time>2016-06-24T11:11:44Z</time></trkpt>
<trkpt lat="46.05878" lon="7.49031"><ele>1857.8</ele><time>2016-06-24T11:11:49Z</time></trkpt>
<trkpt lat="46.05865" lon="7.49011"><ele>1861.4</ele><time>2016-06-24T11:12:05Z</time></trkpt>
<trkpt lat="46.0586" lon="7.49003"><ele>1863.8</ele><time>2016-06-24T11:12:14Z</time></trkpt>
<trkpt lat="46.0585" lon="7.49003"><ele>1865.8</ele><time>2016-06-24T11:12:23Z</time></trkpt>
<trkpt lat="46.05839" lon="7.49006"><ele>1868</ele><time>2016-06-24T11:12:33Z</time></trkpt>
<trkpt lat="46.05836" lon="7.49002"><ele>1868.6</ele><time>2016-06-24T11:12:37Z</time></trkpt>
<trkpt lat="46.05831" lon="7.48987"><ele>1870.6</ele><time>2016-06-24T11:12:47Z</time></trkpt>
<trkpt lat="46.05831" lon="7.48975"><ele>1871.4</ele><time>2016-06-24T11:12:54Z</time></trkpt>
<trkpt lat="46.05829" lon="7.48965"><ele>1872.2</ele><time>2016-06-24T11:13:00Z</time></trkpt>
<trkpt lat="46.05829" lon="7.48963"><ele>1872.4</ele><time>2016-06-24T11:13:01Z</time></trkpt>
<trkpt lat="46.05821" lon="7.48953"><ele>1873.6</ele><time>2016-06-24T11:13:09Z</time></trkpt>
<trkpt lat="46.05816" lon="7.48947"><ele>1874.6</ele><time>2016-06-24T11:13:14Z</time></trkpt>
<trkpt lat="46.05808" lon="7.48938"><ele>1875.8</ele><time>2016-06-24T11:13:22Z</time></trkpt>
<trkpt lat="46.05796" lon="7.48937"><ele>1875.8</ele><time>2016-06-24T11:13:30Z</time></trkpt>
<trkpt lat="46.05785" lon="7.48943"><ele>1876</ele><time>2016-06-24T11:13:38Z</time></trkpt>
<trkpt lat="46.05781" lon="7.48945"><ele>1876.2</ele><time>2016-06-24T11:13:40Z</time></trkpt>
<trkpt lat="46.05761" lon="7.48931"><ele>1878.6</ele><time>2016-06-24T11:13:56Z</time></trkpt>
<trkpt lat="46.05755" lon="7.48924"><ele>1879.4</ele><time>2016-06-24T11:14:00Z</time></trkpt>
<trkpt lat="46.05745" lon="7.48919"><ele>1880.4</ele><time>2016-06-24T11:14:06Z</time></trkpt>
<trkpt lat="46.05727" lon="7.48926"><ele>1882</ele><time>2016-06-24T11:14:17Z</time></trkpt>
<trkpt lat="46.05708" lon="7.48929"><ele>1883.6</ele><time>2016-06-24T11:14:27Z</time></trkpt>
<trkpt lat="46.05691" lon="7.48922"><ele>1884.2</ele><time>2016-06-24T11:14:37Z</time></trkpt>
<trkpt lat="46.05683" lon="7.4892"><ele>1884.6</ele><time>2016-06-24T11:14:41Z</time></trkpt>
<trkpt lat="46.05677" lon="7.48919"><ele>1885</ele><time>2016-06-24T11:14:44Z</time></trkpt>
<trkpt lat="46.05667" lon="7.48919"><ele>1886</ele><time>2016-06-24T11:14:49Z</time></trkpt>
<trkpt lat="46.05638" lon="7.48901"><ele>1887</ele><time>2016-06-24T11:15:04Z</time></trkpt>
<trkpt lat="46.05629" lon="7.48879"><ele>1887</ele><time>2016-06-24T11:15:13Z</time></trkpt>
<trkpt lat="46.05627" lon="7.48873"><ele>1887.2</ele><time>2016-06-24T11:15:15Z</time></trkpt>
<trkpt lat="46.05625" lon="7.48868"><ele>1887.4</ele><time>2016-06-24T11:15:17Z</time></trkpt>
<trkpt lat="46.05613" lon="7.48848"><ele>1888.8</ele><time>2016-06-24T11:15:27Z</time></trkpt>
<trkpt lat="46.05608" lon="7.48841"><ele>1888.8</ele><time>2016-06-24T11:15:31Z</time></trkpt>
<trkpt lat="46.05601" lon="7.48831"><ele>1888.4</ele><time>2016-06-24T11:15:35Z</time></trkpt>
<trkpt lat="46.05586" lon="7.48814"><ele>1888</ele><time>2016-06-24T11:15:40Z</time></trkpt>
<trkpt lat="46.05575" lon="7.48804"><ele>1888</ele><time>2016-06-24T11:15:44Z</time></trkpt>
<trkpt lat="46.05568" lon="7.48797"><ele>1888</ele><time>2016-06-24T11:15:47Z</time></trkpt>
<trkpt lat="46.05564" lon="7.48793"><ele>1888</ele><time>2016-06-24T11:15:49Z</time></trkpt>
<trkpt lat="46.05549" lon="7.48776"><ele>1888.8</ele><time>2016-06-24T11:15:57Z</time></trkpt>
<trkpt lat="46.05529" lon="7.48763"><ele>1889.8</ele><time>2016-06-24T11:16:05Z</time></trkpt>
<trkpt lat="46.0552" lon="7.48758"><ele>1890</ele><time>2016-06-24T11:16:09Z</time></trkpt>
<trkpt lat="46.05502" lon="7.48749"><ele>1889.8</ele><time>2016-06-24T11:16:17Z</time></trkpt>
<trkpt lat="46.05486" lon="7.48737"><ele>1889.4</ele><time>2016-06-24T11:16:25Z</time></trkpt>
<trkpt lat="46.05479" lon="7.4873"><ele>1889.8</ele><time>2016-06-24T11:16:29Z</time></trkpt>
<trkpt lat="46.05476" lon="7.48728"><ele>1889.6</ele><time>2016-06-24T11:16:31Z</time></trkpt>
<trkpt lat="46.05471" lon="7.48728"><ele>1889.8</ele><time>2016-06-24T11:16:36Z</time></trkpt>
<trkpt lat="46.05471" lon="7.48728"><ele>1889.8</ele><time>2016-06-24T11:16:46Z</time></trkpt>
<trkpt lat="46.0547" lon="7.48728"><ele>1890</ele><time>2016-06-24T11:16:51Z</time></trkpt>
<trkpt lat="46.05466" lon="7.48727"><ele>1890.2</ele><time>2016-06-24T11:16:58Z</time></trkpt>
<trkpt lat="46.05465" lon="7.48725"><ele>1890.4</ele><time>2016-06-24T11:17:01Z</time></trkpt>
<trkpt lat="46.05464" lon="7.48726"><ele>1890.4</ele><time>2016-06-24T11:17:03Z</time></trkpt>
<trkpt lat="46.05477" lon="7.48717"><ele>1890.6</ele><time>2016-06-24T11:17:23Z</time></trkpt>
<trkpt lat="46.05478" lon="7.48716"><ele>1890.6</ele><time>2016-06-24T11:17:25Z</time></trkpt>
<trkpt lat="46.05479" lon="7.48715"><ele>1890.4</ele><time>2016-06-24T11:17:31Z</time></trkpt>
<trkpt lat="46.05478" lon="7.48717"><ele>1890</ele><time>2016-06-24T11:17:53Z</time></trkpt>
<trkpt lat="46.05478" lon="7.48716"><ele>1889.4</ele><time>2016-06-24T11:18:13Z</time></trkpt>
<trkpt lat="46.05478" lon="7.48715"><ele>1889</ele><time>2016-06-24T11:18:28Z</time></trkpt>
<trkpt lat="46.05478" lon="7.48716"><ele>1889</ele><time>2016-06-24T11:18:30Z</time></trkpt>
<trkpt lat="46.05479" lon="7.48712"><ele>1888.8</ele><time>2016-06-24T11:18:40Z</time></trkpt>
<trkpt lat="46.05479" lon="7.4871"><ele>1888.6</ele><time>2016-06-24T11:18:44Z</time></trkpt>
<trkpt lat="46.05478" lon="7.48709"><ele>1888.8</ele><time>2016-06-24T11:18:48Z</time></trkpt>
<trkpt lat="46.05478" lon="7.48709"><ele>1888.8</ele><time>2016-06-24T11:18:49Z</time></trkpt>
<trkpt lat="46.05478" lon="7.4871"><ele>1888.8</ele><time>2016-06-24T11:18:51Z</time></trkpt>
<trkpt lat="46.05477" lon="7.4871"><ele>1888.8</ele><time>2016-06-24T11:18:52Z</time></trkpt>
<trkpt lat="46.05477" lon="7.4871"><ele>1888.8</ele><time>2016-06-24T11:18:53Z</time></trkpt>
<trkpt lat="46.05478" lon="7.4871"><ele>1888.8</ele><time>2016-06-24T11:19:03Z</time></trkpt>
<trkpt lat="46.05478" lon="7.48709"><ele>1888.8</ele><time>2016-06-24T11:19:04Z</time></trkpt>
<trkpt lat="46.05478" lon="7.48709"><ele>1888.8</ele><time>2016-06-24T11:19:05Z</time></trkpt>
<trkpt lat="46.05479" lon="7.48708"><ele>1888.8</ele><time>2016-06-24T11:19:07Z</time></trkpt>
<trkpt lat="46.05477" lon="7.48702"><ele>1889</ele><time>2016-06-24T11:19:19Z</time></trkpt>
<trkpt lat="46.05475" lon="7.48701"><ele>1889.4</ele><time>2016-06-24T11:19:25Z</time></trkpt>
<trkpt lat="46.05475" lon="7.48702"><ele>1889.8</ele><time>2016-06-24T11:19:31Z</time></trkpt>
<trkpt lat="46.05475" lon="7.48702"><ele>1890.2</ele><time>2016-06-24T11:19:36Z</time></trkpt>
<trkpt lat="46.05475" lon="7.48702"><ele>1890.4</ele><time>2016-06-24T11:19:40Z</time></trkpt>
<trkpt lat="46.05475" lon="7.48702"><ele>1890.6</ele><time>2016-06-24T11:19:41Z</time></trkpt>
<trkpt lat="46.05474" lon="7.48703"><ele>1890.6</ele><time>2016-06-24T11:19:43Z</time></trkpt>
<trkpt lat="46.05481" lon="7.48707"><ele>1891.6</ele><time>2016-06-24T11:19:59Z</time></trkpt>
<trkpt lat="46.05488" lon="7.48707"><ele>1891.2</ele><time>2016-06-24T11:20:07Z</time></trkpt>
<trkpt lat="46.05496" lon="7.48701"><ele>1890.8</ele><time>2016-06-24T11:20:30Z</time></trkpt>
<trkpt lat="46.05486" lon="7.48711"><ele>1891</ele><time>2016-06-24T11:20:42Z</time></trkpt>
<trkpt lat="46.05479" lon="7.48718"><ele>1890.6</ele><time>2016-06-24T11:20:50Z</time></trkpt>
<trkpt lat="46.05478" lon="7.48717"><ele>1890.4</ele><time>2016-06-24T11:21:09Z</time></trkpt>
<trkpt lat="46.05479" lon="7.48717"><ele>1890.4</ele><time>2016-06-24T11:21:24Z</time></trkpt>
<trkpt lat="46.05479" lon="7.48717"><ele>1890</ele><time>2016-06-24T11:21:29Z</time></trkpt>
<trkpt lat="46.05479" lon="7.48718"><ele>1889.8</ele><time>2016-06-24T11:21:30Z</time></trkpt>
<trkpt lat="46.05479" lon="7.48718"><ele>1889.8</ele><time>2016-06-24T11:21:31Z</time></trkpt>
<trkpt lat="46.05479" lon="7.48718"><ele>1889.8</ele><time>2016-06-24T11:21:33Z</time></trkpt>
<trkpt lat="46.05479" lon="7.48716"><ele>1889.4</ele><time>2016-06-24T11:21:49Z</time></trkpt>
<trkpt lat="46.05479" lon="7.48717"><ele>1889.4</ele><time>2016-06-24T11:21:53Z</time></trkpt>
<trkpt lat="46.05478" lon="7.48718"><ele>1889.8</ele><time>2016-06-24T11:22:01Z</time></trkpt>
<trkpt lat="46.05466" lon="7.48738"><ele>1889.8</ele><time>2016-06-24T11:22:16Z</time></trkpt>
<trkpt lat="46.05462" lon="7.4875"><ele>1889.6</ele><time>2016-06-24T11:22:24Z</time></trkpt>
<trkpt lat="46.05459" lon="7.48756"><ele>1889.8</ele><time>2016-06-24T11:22:28Z</time></trkpt>
<trkpt lat="46.05458" lon="7.48761"><ele>1890.4</ele><time>2016-06-24T11:22:31Z</time></trkpt>
<trkpt lat="46.05455" lon="7.48765"><ele>1891</ele><time>2016-06-24T11:22:35Z</time></trkpt>
<trkpt lat="46.05447" lon="7.48785"><ele>1893.6</ele><time>2016-06-24T11:22:49Z</time></trkpt>
<trkpt lat="46.05446" lon="7.48786"><ele>1893.8</ele><time>2016-06-24T11:22:50Z</time></trkpt>
<trkpt lat="46.0544" lon="7.48787"><ele>1895.2</ele><time>2016-06-24T11:22:57Z</time></trkpt>
<trkpt lat="46.05438" lon="7.48789"><ele>1896.4</ele><time>2016-06-24T11:23:06Z</time></trkpt>
<trkpt lat="46.05442" lon="7.48798"><ele>1896.6</ele><time>2016-06-24T11:23:10Z</time></trkpt>
<trkpt lat="46.05442" lon="7.48802"><ele>1896.8</ele><time>2016-06-24T11:23:12Z</time></trkpt>
<trkpt lat="46.0544" lon="7.48807"><ele>1896.8</ele><time>2016-06-24T11:23:14Z</time></trkpt>
<trkpt lat="46.05436" lon="7.48821"><ele>1896</ele><time>2016-06-24T11:23:20Z</time></trkpt>
<trkpt lat="46.05433" lon="7.48829"><ele>1895.4</ele><time>2016-06-24T11:23:25Z</time></trkpt>
<trkpt lat="46.05431" lon="7.48833"><ele>1893.8</ele><time>2016-06-24T11:23:34Z</time></trkpt>
<trkpt lat="46.0543" lon="7.48832"><ele>1893.6</ele><time>2016-06-24T11:23:37Z</time></trkpt>
<trkpt lat="46.05426" lon="7.48838"><ele>1893.4</ele><time>2016-06-24T11:23:42Z</time></trkpt>
<trkpt lat="46.05426" lon="7.48843"><ele>1893</ele><time>2016-06-24T11:23:47Z</time></trkpt>
<trkpt lat="46.05426" lon="7.48843"><ele>1893</ele><time>2016-06-24T11:23:48Z</time></trkpt>
<trkpt lat="46.05419" lon="7.48848"><ele>1891.8</ele><time>2016-06-24T11:24:02Z</time></trkpt>
<trkpt lat="46.05418" lon="7.48851"><ele>1891.4</ele><time>2016-06-24T11:24:04Z</time></trkpt>
<trkpt lat="46.05418" lon="7.48855"><ele>1890.8</ele><time>2016-06-24T11:24:07Z</time></trkpt>
<trkpt lat="46.05417" lon="7.48855"><ele>1889.6</ele><time>2016-06-24T11:24:12Z</time></trkpt>
<trkpt lat="46.05412" lon="7.48855"><ele>1887.8</ele><time>2016-06-24T11:24:19Z</time></trkpt>
<trkpt lat="46.0541" lon="7.48856"><ele>1887.2</ele><time>2016-06-24T11:24:21Z</time></trkpt>
<trkpt lat="46.05406" lon="7.48862"><ele>1884.8</ele><time>2016-06-24T11:24:27Z</time></trkpt>
<trkpt lat="46.05394" lon="7.48864"><ele>1879</ele><time>2016-06-24T11:24:44Z</time></trkpt>
<trkpt lat="46.05394" lon="7.48869"><ele>1879.2</ele><time>2016-06-24T11:24:49Z</time></trkpt>
<trkpt lat="46.05404" lon="7.48882"><ele>1877.6</ele><time>2016-06-24T11:24:55Z</time></trkpt>
<trkpt lat="46.05405" lon="7.48886"><ele>1875.6</ele><time>2016-06-24T11:24:59Z</time></trkpt>
<trkpt lat="46.05404" lon="7.48887"><ele>1874.8</ele><time>2016-06-24T11:25:02Z</time></trkpt>
<trkpt lat="46.05391" lon="7.48884"><ele>1871.4</ele><time>2016-06-24T11:25:10Z</time></trkpt>
<trkpt lat="46.05389" lon="7.48884"><ele>1870.8</ele><time>2016-06-24T11:25:11Z</time></trkpt>
<trkpt lat="46.05384" lon="7.48885"><ele>1869.2</ele><time>2016-06-24T11:25:14Z</time></trkpt>
<trkpt lat="46.05383" lon="7.48886"><ele>1868.8</ele><time>2016-06-24T11:25:15Z</time></trkpt>
<trkpt lat="46.05369" lon="7.48895"><ele>1863.6</ele><time>2016-06-24T11:25:24Z</time></trkpt>
<trkpt lat="46.05371" lon="7.48906"><ele>1861.4</ele><time>2016-06-24T11:25:27Z</time></trkpt>
<trkpt lat="46.05373" lon="7.48925"><ele>1858.6</ele><time>2016-06-24T11:25:34Z</time></trkpt>
<trkpt lat="46.05373" lon="7.48925"><ele>1858.6</ele><time>2016-06-24T11:25:36Z</time></trkpt>
<trkpt lat="46.05374" lon="7.48925"><ele>1859.2</ele><time>2016-06-24T11:25:41Z</time></trkpt>
<trkpt lat="46.05373" lon="7.48926"><ele>1859.2</ele><time>2016-06-24T11:25:43Z</time></trkpt>
<trkpt lat="46.05369" lon="7.48931"><ele>1857.8</ele><time>2016-06-24T11:25:54Z</time></trkpt>
<trkpt lat="46.05369" lon="7.48931"><ele>1857.4</ele><time>2016-06-24T11:25:56Z</time></trkpt>
<trkpt lat="46.05369" lon="7.48931"><ele>1857.2</ele><time>2016-06-24T11:25:58Z</time></trkpt>
<trkpt lat="46.05369" lon="7.48931"><ele>1857</ele><time>2016-06-24T11:25:59Z</time></trkpt>
<trkpt lat="46.05368" lon="7.48931"><ele>1857</ele><time>2016-06-24T11:26:00Z</time></trkpt>
<trkpt lat="46.05368" lon="7.48932"><ele>1856.8</ele><time>2016-06-24T11:26:01Z</time></trkpt>
<trkpt lat="46.05367" lon="7.48931"><ele>1856.6</ele><time>2016-06-24T11:26:03Z</time></trkpt>
<trkpt lat="46.05362" lon="7.48925"><ele>1855.8</ele><time>2016-06-24T11:26:11Z</time></trkpt>
<trkpt lat="46.05354" lon="7.48919"><ele>1855.8</ele><time>2016-06-24T11:26:24Z</time></trkpt>
<trkpt lat="46.05353" lon="7.48919"><ele>1855.8</ele><time>2016-06-24T11:26:27Z</time></trkpt>
<trkpt lat="46.05353" lon="7.48918"><ele>1855.6</ele><time>2016-06-24T11:26:28Z</time></trkpt>
<trkpt lat="46.05352" lon="7.48917"><ele>1855.6</ele><time>2016-06-24T11:26:29Z</time></trkpt>
<trkpt lat="46.05351" lon="7.48917"><ele>1855.6</ele><time>2016-06-24T11:26:30Z</time></trkpt>
<trkpt lat="46.05349" lon="7.48915"><ele>1855.8</ele><time>2016-06-24T11:26:33Z</time></trkpt>
<trkpt lat="46.05348" lon="7.48914"><ele>1855.8</ele><time>2016-06-24T11:26:36Z</time></trkpt>
<trkpt lat="46.05351" lon="7.4891"><ele>1855.8</ele><time>2016-06-24T11:26:43Z</time></trkpt>
<trkpt lat="46.05349" lon="7.48904"><ele>1855.6</ele><time>2016-06-24T11:26:52Z</time></trkpt>
<trkpt lat="46.05347" lon="7.48903"><ele>1855.8</ele><time>2016-06-24T11:26:55Z</time></trkpt>
<trkpt lat="46.05346" lon="7.48902"><ele>1855.8</ele><time>2016-06-24T11:26:57Z</time></trkpt>
<trkpt lat="46.05343" lon="7.48899"><ele>1856.2</ele><time>2016-06-24T11:27:03Z</time></trkpt>
<trkpt lat="46.05332" lon="7.48889"><ele>1857.4</ele><time>2016-06-24T11:27:14Z</time></trkpt>
<trkpt lat="46.05326" lon="7.48876"><ele>1859.6</ele><time>2016-06-24T11:27:41Z</time></trkpt>
<trkpt lat="46.05309" lon="7.48871"><ele>1863.2</ele><time>2016-06-24T11:28:12Z</time></trkpt>
<trkpt lat="46.05291" lon="7.48864"><ele>1867.4</ele><time>2016-06-24T11:28:45Z</time></trkpt>
<trkpt lat="46.05282" lon="7.48844"><ele>1870.6</ele><time>2016-06-24T11:29:10Z</time></trkpt>
<trkpt lat="46.05278" lon="7.48833"><ele>1871.6</ele><time>2016-06-24T11:29:19Z</time></trkpt>
<trkpt lat="46.05275" lon="7.48828"><ele>1872.8</ele><time>2016-06-24T11:29:27Z</time></trkpt>
<trkpt lat="46.0527" lon="7.48823"><ele>1875</ele><time>2016-06-24T11:29:40Z</time></trkpt>
<trkpt lat="46.05265" lon="7.48811"><ele>1876.8</ele><time>2016-06-24T11:29:51Z</time></trkpt>
<trkpt lat="46.05256" lon="7.48796"><ele>1878.6</ele><time>2016-06-24T11:30:00Z</time></trkpt>
<trkpt lat="46.05254" lon="7.48795"><ele>1878.8</ele><time>2016-06-24T11:30:02Z</time></trkpt>
<trkpt lat="46.05247" lon="7.48792"><ele>1880</ele><time>2016-06-24T11:30:12Z</time></trkpt>
<trkpt lat="46.05246" lon="7.48791"><ele>1880.2</ele><time>2016-06-24T11:30:14Z</time></trkpt>
<trkpt lat="46.05245" lon="7.4879"><ele>1880.4</ele><time>2016-06-24T11:30:15Z</time></trkpt>
<trkpt lat="46.05236" lon="7.48772"><ele>1882.2</ele><time>2016-06-24T11:30:30Z</time></trkpt>
<trkpt lat="46.05219" lon="7.48762"><ele>1886.6</ele><time>2016-06-24T11:31:01Z</time></trkpt>
<trkpt lat="46.05204" lon="7.48747"><ele>1891.4</ele><time>2016-06-24T11:31:30Z</time></trkpt>
<trkpt lat="46.05199" lon="7.4874"><ele>1894.6</ele><time>2016-06-24T11:31:52Z</time></trkpt>
<trkpt lat="46.05196" lon="7.48741"><ele>1894.8</ele><time>2016-06-24T11:32:00Z</time></trkpt>
<trkpt lat="46.05185" lon="7.48729"><ele>1898.8</ele><time>2016-06-24T11:32:36Z</time></trkpt>
<trkpt lat="46.05167" lon="7.48725"><ele>1904.4</ele><time>2016-06-24T11:33:17Z</time></trkpt>
<trkpt lat="46.05153" lon="7.48711"><ele>1908.4</ele><time>2016-06-24T11:33:53Z</time></trkpt>
<trkpt lat="46.05144" lon="7.48694"><ele>1915</ele><time>2016-06-24T11:34:39Z</time></trkpt>
<trkpt lat="46.05134" lon="7.4869"><ele>1916.8</ele><time>2016-06-24T11:34:53Z</time></trkpt>
<trkpt lat="46.05119" lon="7.48676"><ele>1920</ele><time>2016-06-24T11:35:08Z</time></trkpt>
<trkpt lat="46.05109" lon="7.48671"><ele>1921.8</ele><time>2016-06-24T11:35:16Z</time></trkpt>
<trkpt lat="46.05103" lon="7.48664"><ele>1923.4</ele><time>2016-06-24T11:35:23Z</time></trkpt>
<trkpt lat="46.05092" lon="7.48653"><ele>1925.8</ele><time>2016-06-24T11:35:32Z</time></trkpt>
<trkpt lat="46.05088" lon="7.48649"><ele>1927</ele><time>2016-06-24T11:35:35Z</time></trkpt>
<trkpt lat="46.0508" lon="7.48644"><ele>1929</ele><time>2016-06-24T11:35:41Z</time></trkpt>
<trkpt lat="46.05075" lon="7.48641"><ele>1930</ele><time>2016-06-24T11:35:44Z</time></trkpt>
<trkpt lat="46.05072" lon="7.4864"><ele>1930.8</ele><time>2016-06-24T11:35:47Z</time></trkpt>
<trkpt lat="46.05072" lon="7.48651"><ele>1932.8</ele><time>2016-06-24T11:35:54Z</time></trkpt>
<trkpt lat="46.05073" lon="7.48658"><ele>1934.2</ele><time>2016-06-24T11:35:59Z</time></trkpt>
<trkpt lat="46.05073" lon="7.48658"><ele>1934.4</ele><time>2016-06-24T11:36:02Z</time></trkpt>
<trkpt lat="46.05069" lon="7.48655"><ele>1935.2</ele><time>2016-06-24T11:36:09Z</time></trkpt>
<trkpt lat="46.05062" lon="7.48653"><ele>1936.4</ele><time>2016-06-24T11:36:17Z</time></trkpt>
<trkpt lat="46.05044" lon="7.48651"><ele>1937.8</ele><time>2016-06-24T11:36:27Z</time></trkpt>
<trkpt lat="46.05035" lon="7.48647"><ele>1939</ele><time>2016-06-24T11:36:35Z</time></trkpt>
<trkpt lat="46.05015" lon="7.48642"><ele>1941.2</ele><time>2016-06-24T11:36:46Z</time></trkpt>
<trkpt lat="46.04998" lon="7.48641"><ele>1944.8</ele><time>2016-06-24T11:36:55Z</time></trkpt>
<trkpt lat="46.04996" lon="7.48639"><ele>1945</ele><time>2016-06-24T11:36:56Z</time></trkpt>
<trkpt lat="46.04994" lon="7.48636"><ele>1946.2</ele><time>2016-06-24T11:36:58Z</time></trkpt>
<trkpt lat="46.04992" lon="7.48633"><ele>1947</ele><time>2016-06-24T11:37:00Z</time></trkpt>
<trkpt lat="46.0499" lon="7.48631"><ele>1947.8</ele><time>2016-06-24T11:37:02Z</time></trkpt>
<trkpt lat="46.04986" lon="7.48625"><ele>1949.6</ele><time>2016-06-24T11:37:07Z</time></trkpt>
<trkpt lat="46.04982" lon="7.48615"><ele>1951.8</ele><time>2016-06-24T11:37:14Z</time></trkpt>
<trkpt lat="46.04982" lon="7.48615"><ele>1952.2</ele><time>2016-06-24T11:37:17Z</time></trkpt>
<trkpt lat="46.04982" lon="7.4861"><ele>1952.4</ele><time>2016-06-24T11:37:24Z</time></trkpt>
<trkpt lat="46.04981" lon="7.48608"><ele>1952.6</ele><time>2016-06-24T11:37:27Z</time></trkpt>
<trkpt lat="46.04979" lon="7.48598"><ele>1952.8</ele><time>2016-06-24T11:37:35Z</time></trkpt>
<trkpt lat="46.04971" lon="7.48575"><ele>1955.6</ele><time>2016-06-24T11:38:04Z</time></trkpt>
<trkpt lat="46.04961" lon="7.48568"><ele>1956.8</ele><time>2016-06-24T11:38:17Z</time></trkpt>
<trkpt lat="46.04954" lon="7.4856"><ele>1958.6</ele><time>2016-06-24T11:38:32Z</time></trkpt>
<trkpt lat="46.04948" lon="7.4853"><ele>1962.4</ele><time>2016-06-24T11:39:09Z</time></trkpt>
<trkpt lat="46.04944" lon="7.48516"><ele>1965.4</ele><time>2016-06-24T11:39:29Z</time></trkpt>
<trkpt lat="46.04944" lon="7.48497"><ele>1967</ele><time>2016-06-24T11:39:57Z</time></trkpt>
<trkpt lat="46.04944" lon="7.48489"><ele>1968.4</ele><time>2016-06-24T11:40:09Z</time></trkpt>
<trkpt lat="46.04939" lon="7.48467"><ele>1971</ele><time>2016-06-24T11:40:37Z</time></trkpt>
<trkpt lat="46.04941" lon="7.48464"><ele>1971.8</ele><time>2016-06-24T11:40:47Z</time></trkpt>
<trkpt lat="46.04941" lon="7.48462"><ele>1972.8</ele><time>2016-06-24T11:40:59Z</time></trkpt>
<trkpt lat="46.04942" lon="7.48462"><ele>1973</ele><time>2016-06-24T11:41:01Z</time></trkpt>
<trkpt lat="46.04943" lon="7.48463"><ele>1973.4</ele><time>2016-06-24T11:41:05Z</time></trkpt>
<trkpt lat="46.04944" lon="7.48464"><ele>1973.6</ele><time>2016-06-24T11:41:10Z</time></trkpt>
<trkpt lat="46.04944" lon="7.48464"><ele>1973.8</ele><time>2016-06-24T11:41:12Z</time></trkpt>
<trkpt lat="46.04945" lon="7.48465"><ele>1973.8</ele><time>2016-06-24T11:41:18Z</time></trkpt>
<trkpt lat="46.04945" lon="7.48464"><ele>1973.8</ele><time>2016-06-24T11:41:24Z</time></trkpt>
<trkpt lat="46.04944" lon="7.48464"><ele>1974</ele><time>2016-06-24T11:41:26Z</time></trkpt>
<trkpt lat="46.04945" lon="7.48463"><ele>1974</ele><time>2016-06-24T11:41:33Z</time></trkpt>
<trkpt lat="46.04946" lon="7.48464"><ele>1973.8</ele><time>2016-06-24T11:41:44Z</time></trkpt>
<trkpt lat="46.04948" lon="7.48464"><ele>1973.6</ele><time>2016-06-24T11:41:50Z</time></trkpt>
<trkpt lat="46.04948" lon="7.48465"><ele>1973.2</ele><time>2016-06-24T11:42:01Z</time></trkpt>
<trkpt lat="46.04949" lon="7.48467"><ele>1972.6</ele><time>2016-06-24T11:42:14Z</time></trkpt>
<trkpt lat="46.04947" lon="7.48462"><ele>1972.6</ele><time>2016-06-24T11:42:19Z</time></trkpt>
<trkpt lat="46.04947" lon="7.48457"><ele>1972.6</ele><time>2016-06-24T11:42:24Z</time></trkpt>
<trkpt lat="46.04947" lon="7.48454"><ele>1972.4</ele><time>2016-06-24T11:42:27Z</time></trkpt>
<trkpt lat="46.04946" lon="7.48452"><ele>1972.6</ele><time>2016-06-24T11:42:29Z</time></trkpt>
<trkpt lat="46.04949" lon="7.48453"><ele>1972.8</ele><time>2016-06-24T11:42:35Z</time></trkpt>
<trkpt lat="46.04952" lon="7.48461"><ele>1973.2</ele><time>2016-06-24T11:42:42Z</time></trkpt>
<trkpt lat="46.04953" lon="7.48463"><ele>1973.4</ele><time>2016-06-24T11:42:45Z</time></trkpt>
<trkpt lat="46.04955" lon="7.48455"><ele>1974</ele><time>2016-06-24T11:42:54Z</time></trkpt>
<trkpt lat="46.04956" lon="7.48452"><ele>1974.4</ele><time>2016-06-24T11:42:57Z</time></trkpt>
<trkpt lat="46.04957" lon="7.48439"><ele>1975.8</ele><time>2016-06-24T11:43:10Z</time></trkpt>
<trkpt lat="46.04959" lon="7.48415"><ele>1979.8</ele><time>2016-06-24T11:43:39Z</time></trkpt>
<trkpt lat="46.04959" lon="7.48412"><ele>1981</ele><time>2016-06-24T11:43:43Z</time></trkpt>
<trkpt lat="46.04963" lon="7.48398"><ele>1984</ele><time>2016-06-24T11:44:03Z</time></trkpt>
<trkpt lat="46.04973" lon="7.48412"><ele>1990.4</ele><time>2016-06-24T11:44:47Z</time></trkpt>
<trkpt lat="46.04985" lon="7.4843"><ele>1994.6</ele><time>2016-06-24T11:45:16Z</time></trkpt>
<trkpt lat="46.04998" lon="7.4844"><ele>2001.2</ele><time>2016-06-24T11:45:52Z</time></trkpt>
<trkpt lat="46.05009" lon="7.48419"><ele>2007.8</ele><time>2016-06-24T11:46:23Z</time></trkpt>
<trkpt lat="46.05009" lon="7.48414"><ele>2009.4</ele><time>2016-06-24T11:46:29Z</time></trkpt>
<trkpt lat="46.05012" lon="7.48406"><ele>2011.8</ele><time>2016-06-24T11:46:45Z</time></trkpt>
<trkpt lat="46.05017" lon="7.48394"><ele>2018.6</ele><time>2016-06-24T11:47:08Z</time></trkpt>
<trkpt lat="46.05018" lon="7.48387"><ele>2024</ele><time>2016-06-24T11:47:21Z</time></trkpt>
<trkpt lat="46.0502" lon="7.48358"><ele>2036.4</ele><time>2016-06-24T11:48:07Z</time></trkpt>
<trkpt lat="46.05026" lon="7.48347"><ele>2045.6</ele><time>2016-06-24T11:48:45Z</time></trkpt>
<trkpt lat="46.05039" lon="7.48335"><ele>2051</ele><time>2016-06-24T11:49:15Z</time></trkpt>
<trkpt lat="46.05048" lon="7.48319"><ele>2054.4</ele><time>2016-06-24T11:49:39Z</time></trkpt>
<trkpt lat="46.0505" lon="7.48318"><ele>2054.4</ele><time>2016-06-24T11:49:52Z</time></trkpt>
<trkpt lat="46.0505" lon="7.48317"><ele>2054.6</ele><time>2016-06-24T11:50:00Z</time></trkpt>
<trkpt lat="46.05051" lon="7.48318"><ele>2055</ele><time>2016-06-24T11:50:04Z</time></trkpt>
<trkpt lat="46.05051" lon="7.48318"><ele>2055.4</ele><time>2016-06-24T11:50:08Z</time></trkpt>
<trkpt lat="46.0505" lon="7.48318"><ele>2055.8</ele><time>2016-06-24T11:50:10Z</time></trkpt>
<trkpt lat="46.05049" lon="7.48317"><ele>2056.4</ele><time>2016-06-24T11:50:16Z</time></trkpt>
<trkpt lat="46.05049" lon="7.48316"><ele>2056.6</ele><time>2016-06-24T11:50:20Z</time></trkpt>
<trkpt lat="46.0505" lon="7.48317"><ele>2056.8</ele><time>2016-06-24T11:50:27Z</time></trkpt>
<trkpt lat="46.0505" lon="7.48317"><ele>2056.8</ele><time>2016-06-24T11:50:30Z</time></trkpt>
<trkpt lat="46.05053" lon="7.48317"><ele>2055.6</ele><time>2016-06-24T11:51:03Z</time></trkpt>
<trkpt lat="46.05052" lon="7.48317"><ele>2055.6</ele><time>2016-06-24T11:51:04Z</time></trkpt>
<trkpt lat="46.05052" lon="7.48317"><ele>2055.6</ele><time>2016-06-24T11:51:05Z</time></trkpt>
<trkpt lat="46.05053" lon="7.48318"><ele>2055.2</ele><time>2016-06-24T11:51:15Z</time></trkpt>
<trkpt lat="46.05052" lon="7.48317"><ele>2055.4</ele><time>2016-06-24T11:51:18Z</time></trkpt>
<trkpt lat="46.05052" lon="7.48317"><ele>2055.6</ele><time>2016-06-24T11:51:27Z</time></trkpt>
<trkpt lat="46.05052" lon="7.48317"><ele>2055.4</ele><time>2016-06-24T11:51:29Z</time></trkpt>
<trkpt lat="46.05049" lon="7.48316"><ele>2054.8</ele><time>2016-06-24T11:51:49Z</time></trkpt>
<trkpt lat="46.05048" lon="7.48317"><ele>2052.8</ele><time>2016-06-24T11:52:20Z</time></trkpt>
<trkpt lat="46.05047" lon="7.48317"><ele>2052.4</ele><time>2016-06-24T11:52:25Z</time></trkpt>
<trkpt lat="46.05047" lon="7.48317"><ele>2052.4</ele><time>2016-06-24T11:52:26Z</time></trkpt>
<trkpt lat="46.05047" lon="7.48317"><ele>2052.2</ele><time>2016-06-24T11:52:27Z</time></trkpt>
<trkpt lat="46.05047" lon="7.48317"><ele>2052</ele><time>2016-06-24T11:52:32Z</time></trkpt>
<trkpt lat="46.0505" lon="7.48317"><ele>2051.6</ele><time>2016-06-24T11:52:42Z</time></trkpt>
<trkpt lat="46.0505" lon="7.48317"><ele>2051.6</ele><time>2016-06-24T11:52:43Z</time></trkpt>
<trkpt lat="46.05051" lon="7.48316"><ele>2051.6</ele><time>2016-06-24T11:52:45Z</time></trkpt>
<trkpt lat="46.05051" lon="7.48316"><ele>2051.6</ele><time>2016-06-24T11:52:48Z</time></trkpt>
<trkpt lat="46.05052" lon="7.48317"><ele>2051.6</ele><time>2016-06-24T11:52:51Z</time></trkpt>
<trkpt lat="46.05052" lon="7.48317"><ele>2051.6</ele><time>2016-06-24T11:52:54Z</time></trkpt>
<trkpt lat="46.05052" lon="7.48317"><ele>2051.6</ele><time>2016-06-24T11:52:55Z</time></trkpt>
<trkpt lat="46.05052" lon="7.48317"><ele>2051.6</ele><time>2016-06-24T11:52:56Z</time></trkpt>
<trkpt lat="46.05051" lon="7.48317"><ele>2051.4</ele><time>2016-06-24T11:53:00Z</time></trkpt>
<trkpt lat="46.05051" lon="7.48317"><ele>2051.4</ele><time>2016-06-24T11:53:01Z</time></trkpt>
<trkpt lat="46.05051" lon="7.48317"><ele>2051.4</ele><time>2016-06-24T11:53:02Z</time></trkpt>
<trkpt lat="46.05052" lon="7.48317"><ele>2051.4</ele><time>2016-06-24T11:53:04Z</time></trkpt>
<trkpt lat="46.05051" lon="7.48317"><ele>2051.2</ele><time>2016-06-24T11:53:10Z</time></trkpt>
<trkpt lat="46.05051" lon="7.48316"><ele>2051.2</ele><time>2016-06-24T11:53:29Z</time></trkpt>
<trkpt lat="46.05054" lon="7.48317"><ele>2051</ele><time>2016-06-24T11:53:45Z</time></trkpt>
<trkpt lat="46.05054" lon="7.48317"><ele>2051</ele><time>2016-06-24T11:53:46Z</time></trkpt>
<trkpt lat="46.05054" lon="7.48317"><ele>2051</ele><time>2016-06-24T11:53:48Z</time></trkpt>
<trkpt lat="46.05054" lon="7.48317"><ele>2051</ele><time>2016-06-24T11:53:49Z</time></trkpt>
<trkpt lat="46.05053" lon="7.48317"><ele>2051</ele><time>2016-06-24T11:53:51Z</time></trkpt>
<trkpt lat="46.05053" lon="7.48317"><ele>2051</ele><time>2016-06-24T11:53:52Z</time></trkpt>
<trkpt lat="46.05054" lon="7.48316"><ele>2050.8</ele><time>2016-06-24T11:54:03Z</time></trkpt>
<trkpt lat="46.05053" lon="7.48316"><ele>2051</ele><time>2016-06-24T11:54:15Z</time></trkpt>
<trkpt lat="46.05048" lon="7.48317"><ele>2051.4</ele><time>2016-06-24T11:54:28Z</time></trkpt>
<trkpt lat="46.05048" lon="7.48317"><ele>2051.4</ele><time>2016-06-24T11:54:31Z</time></trkpt>
<trkpt lat="46.05048" lon="7.48317"><ele>2051.4</ele><time>2016-06-24T11:54:32Z</time></trkpt>
<trkpt lat="46.05047" lon="7.48317"><ele>2051.4</ele><time>2016-06-24T11:54:33Z</time></trkpt>
<trkpt lat="46.05046" lon="7.48317"><ele>2051.4</ele><time>2016-06-24T11:54:36Z</time></trkpt>
<trkpt lat="46.05046" lon="7.48317"><ele>2051.4</ele><time>2016-06-24T11:54:37Z</time></trkpt>
<trkpt lat="46.05046" lon="7.48317"><ele>2051.4</ele><time>2016-06-24T11:54:38Z</time></trkpt>
<trkpt lat="46.05045" lon="7.48319"><ele>2052.6</ele><time>2016-06-24T11:55:08Z</time></trkpt>
<trkpt lat="46.05044" lon="7.48319"><ele>2052.4</ele><time>2016-06-24T11:55:14Z</time></trkpt>
<trkpt lat="46.05041" lon="7.48318"><ele>2052.2</ele><time>2016-06-24T11:55:24Z</time></trkpt>
<trkpt lat="46.05041" lon="7.48318"><ele>2052.2</ele><time>2016-06-24T11:55:30Z</time></trkpt>
<trkpt lat="46.05044" lon="7.48318"><ele>2052.2</ele><time>2016-06-24T11:55:38Z</time></trkpt>
<trkpt lat="46.05046" lon="7.48318"><ele>2052.2</ele><time>2016-06-24T11:55:48Z</time></trkpt>
<trkpt lat="46.05046" lon="7.48318"><ele>2052.2</ele><time>2016-06-24T11:55:51Z</time></trkpt>
<trkpt lat="46.05046" lon="7.48318"><ele>2052.2</ele><time>2016-06-24T11:55:53Z</time></trkpt>
<trkpt lat="46.05046" lon="7.48318"><ele>2052.2</ele><time>2016-06-24T11:55:54Z</time></trkpt>
<trkpt lat="46.05048" lon="7.48317"><ele>2051.6</ele><time>2016-06-24T11:56:24Z</time></trkpt>
<trkpt lat="46.05052" lon="7.48317"><ele>2051.4</ele><time>2016-06-24T11:56:29Z</time></trkpt>
<trkpt lat="46.05059" lon="7.48306"><ele>2051.4</ele><time>2016-06-24T11:56:43Z</time></trkpt>
<trkpt lat="46.0506" lon="7.48305"><ele>2051.4</ele><time>2016-06-24T11:56:44Z</time></trkpt>
<trkpt lat="46.0506" lon="7.48304"><ele>2051.4</ele><time>2016-06-24T11:56:45Z</time></trkpt>
<trkpt lat="46.0506" lon="7.48304"><ele>2051.6</ele><time>2016-06-24T11:56:46Z</time></trkpt>
<trkpt lat="46.05061" lon="7.48303"><ele>2051.6</ele><time>2016-06-24T11:56:47Z</time></trkpt>
<trkpt lat="46.05063" lon="7.48294"><ele>2052.2</ele><time>2016-06-24T11:56:54Z</time></trkpt>
<trkpt lat="46.05061" lon="7.4828"><ele>2053.8</ele><time>2016-06-24T11:57:11Z</time></trkpt>
<trkpt lat="46.05055" lon="7.48284"><ele>2054.8</ele><time>2016-06-24T11:57:19Z</time></trkpt>
<trkpt lat="46.05055" lon="7.48283"><ele>2055</ele><time>2016-06-24T11:57:20Z</time></trkpt>
<trkpt lat="46.05052" lon="7.48281"><ele>2055.2</ele><time>2016-06-24T11:57:23Z</time></trkpt>
<trkpt lat="46.05052" lon="7.48263"><ele>2056.8</ele><time>2016-06-24T11:57:40Z</time></trkpt>
<trkpt lat="46.05052" lon="7.48258"><ele>2057.2</ele><time>2016-06-24T11:57:44Z</time></trkpt>
<trkpt lat="46.0505" lon="7.48244"><ele>2058.2</ele><time>2016-06-24T11:57:56Z</time></trkpt>
<trkpt lat="46.05047" lon="7.48219"><ele>2061.6</ele><time>2016-06-24T11:58:19Z</time></trkpt>
<trkpt lat="46.05047" lon="7.48211"><ele>2062.8</ele><time>2016-06-24T11:58:27Z</time></trkpt>
<trkpt lat="46.05045" lon="7.48185"><ele>2067</ele><time>2016-06-24T11:58:50Z</time></trkpt>
<trkpt lat="46.05046" lon="7.48159"><ele>2070.8</ele><time>2016-06-24T11:59:16Z</time></trkpt>
<trkpt lat="46.05049" lon="7.48152"><ele>2075.4</ele><time>2016-06-24T11:59:36Z</time></trkpt>
<trkpt lat="46.05048" lon="7.48146"><ele>2076.8</ele><time>2016-06-24T11:59:44Z</time></trkpt>
<trkpt lat="46.05046" lon="7.4812"><ele>2082.4</ele><time>2016-06-24T12:00:11Z</time></trkpt>
<trkpt lat="46.05045" lon="7.48109"><ele>2084.4</ele><time>2016-06-24T12:00:21Z</time></trkpt>
<trkpt lat="46.05045" lon="7.48084"><ele>2089.4</ele><time>2016-06-24T12:00:49Z</time></trkpt>
<trkpt lat="46.05044" lon="7.48059"><ele>2092.8</ele><time>2016-06-24T12:01:10Z</time></trkpt>
<trkpt lat="46.05044" lon="7.4805"><ele>2094.4</ele><time>2016-06-24T12:01:21Z</time></trkpt>
<trkpt lat="46.05034" lon="7.48041"><ele>2096.4</ele><time>2016-06-24T12:01:43Z</time></trkpt>
<trkpt lat="46.05033" lon="7.48042"><ele>2096.6</ele><time>2016-06-24T12:01:46Z</time></trkpt>
<trkpt lat="46.05033" lon="7.48042"><ele>2096.8</ele><time>2016-06-24T12:01:50Z</time></trkpt>
<trkpt lat="46.05031" lon="7.48036"><ele>2097.6</ele><time>2016-06-24T12:01:58Z</time></trkpt>
<trkpt lat="46.05031" lon="7.48033"><ele>2097.8</ele><time>2016-06-24T12:02:00Z</time></trkpt>
<trkpt lat="46.05028" lon="7.4802"><ele>2098.4</ele><time>2016-06-24T12:02:11Z</time></trkpt>
<trkpt lat="46.05027" lon="7.48013"><ele>2098.6</ele><time>2016-06-24T12:02:17Z</time></trkpt>
<trkpt lat="46.05026" lon="7.48009"><ele>2098.8</ele><time>2016-06-24T12:02:20Z</time></trkpt>
<trkpt lat="46.05026" lon="7.48006"><ele>2099.2</ele><time>2016-06-24T12:02:22Z</time></trkpt>
<trkpt lat="46.05018" lon="7.47982"><ele>2101.6</ele><time>2016-06-24T12:02:43Z</time></trkpt>
<trkpt lat="46.05011" lon="7.47966"><ele>2103.4</ele><time>2016-06-24T12:03:00Z</time></trkpt>
<trkpt lat="46.05009" lon="7.47952"><ele>2105.2</ele><time>2016-06-24T12:03:13Z</time></trkpt>
<trkpt lat="46.05023" lon="7.47936"><ele>2107.4</ele><time>2016-06-24T12:03:29Z</time></trkpt>
<trkpt lat="46.05033" lon="7.47935"><ele>2108.2</ele><time>2016-06-24T12:03:39Z</time></trkpt>
<trkpt lat="46.05034" lon="7.47939"><ele>2109</ele><time>2016-06-24T12:03:57Z</time></trkpt>
<trkpt lat="46.05034" lon="7.47939"><ele>2108.8</ele><time>2016-06-24T12:04:02Z</time></trkpt>
<trkpt lat="46.05035" lon="7.4794"><ele>2109.6</ele><time>2016-06-24T12:04:17Z</time></trkpt>
<trkpt lat="46.05036" lon="7.4794"><ele>2110</ele><time>2016-06-24T12:04:23Z</time></trkpt>
<trkpt lat="46.05036" lon="7.47943"><ele>2111.8</ele><time>2016-06-24T12:04:48Z</time></trkpt>
<trkpt lat="46.05037" lon="7.47942"><ele>2112</ele><time>2016-06-24T12:04:50Z</time></trkpt>
<trkpt lat="46.05037" lon="7.47942"><ele>2112</ele><time>2016-06-24T12:04:51Z</time></trkpt>
<trkpt lat="46.05037" lon="7.47941"><ele>2112.4</ele><time>2016-06-24T12:04:57Z</time></trkpt>
<trkpt lat="46.05037" lon="7.47942"><ele>2112.4</ele><time>2016-06-24T12:04:59Z</time></trkpt>
<trkpt lat="46.05036" lon="7.47941"><ele>2112.4</ele><time>2016-06-24T12:05:02Z</time></trkpt>
<trkpt lat="46.05036" lon="7.47941"><ele>2112.4</ele><time>2016-06-24T12:05:05Z</time></trkpt>
<trkpt lat="46.05035" lon="7.47941"><ele>2112.6</ele><time>2016-06-24T12:05:07Z</time></trkpt>
<trkpt lat="46.05035" lon="7.47941"><ele>2113</ele><time>2016-06-24T12:05:13Z</time></trkpt>
<trkpt lat="46.05035" lon="7.47941"><ele>2113.6</ele><time>2016-06-24T12:05:19Z</time></trkpt>
<trkpt lat="46.05035" lon="7.47941"><ele>2114</ele><time>2016-06-24T12:05:26Z</time></trkpt>
<trkpt lat="46.05035" lon="7.47941"><ele>2114</ele><time>2016-06-24T12:05:29Z</time></trkpt>
<trkpt lat="46.05034" lon="7.47941"><ele>2114.4</ele><time>2016-06-24T12:05:38Z</time></trkpt>
<trkpt lat="46.05034" lon="7.47941"><ele>2114.4</ele><time>2016-06-24T12:05:39Z</time></trkpt>
<trkpt lat="46.05034" lon="7.47942"><ele>2114.4</ele><time>2016-06-24T12:05:42Z</time></trkpt>
<trkpt lat="46.05035" lon="7.47942"><ele>2115</ele><time>2016-06-24T12:06:08Z</time></trkpt>
<trkpt lat="46.05035" lon="7.47941"><ele>2115</ele><time>2016-06-24T12:06:24Z</time></trkpt>
<trkpt lat="46.05036" lon="7.47943"><ele>2115.2</ele><time>2016-06-24T12:06:31Z</time></trkpt>
<trkpt lat="46.05036" lon="7.47943"><ele>2115.6</ele><time>2016-06-24T12:06:53Z</time></trkpt>
<trkpt lat="46.05036" lon="7.47942"><ele>2115.6</ele><time>2016-06-24T12:06:56Z</time></trkpt>
<trkpt lat="46.05036" lon="7.47942"><ele>2115.6</ele><time>2016-06-24T12:06:57Z</time></trkpt>
<trkpt lat="46.05036" lon="7.47941"><ele>2115.6</ele><time>2016-06-24T12:07:02Z</time></trkpt>
<trkpt lat="46.05036" lon="7.47941"><ele>2115.6</ele><time>2016-06-24T12:07:04Z</time></trkpt>
<trkpt lat="46.05035" lon="7.47943"><ele>2115.4</ele><time>2016-06-24T12:07:20Z</time></trkpt>
<trkpt lat="46.05035" lon="7.47943"><ele>2115.6</ele><time>2016-06-24T12:07:31Z</time></trkpt>
<trkpt lat="46.05036" lon="7.47943"><ele>2116</ele><time>2016-06-24T12:07:42Z</time></trkpt>
<trkpt lat="46.05032" lon="7.47946"><ele>2116</ele><time>2016-06-24T12:08:20Z</time></trkpt>
<trkpt lat="46.05033" lon="7.47945"><ele>2116.2</ele><time>2016-06-24T12:08:23Z</time></trkpt>
<trkpt lat="46.05033" lon="7.47945"><ele>2116.4</ele><time>2016-06-24T12:08:25Z</time></trkpt>
<trkpt lat="46.05033" lon="7.47946"><ele>2116.6</ele><time>2016-06-24T12:08:27Z</time></trkpt>
<trkpt lat="46.05033" lon="7.47945"><ele>2116.6</ele><time>2016-06-24T12:08:29Z</time></trkpt>
<trkpt lat="46.05035" lon="7.47945"><ele>2117.2</ele><time>2016-06-24T12:08:39Z</time></trkpt>
<trkpt lat="46.05036" lon="7.47943"><ele>2117</ele><time>2016-06-24T12:08:52Z</time></trkpt>
<trkpt lat="46.05036" lon="7.47941"><ele>2116.6</ele><time>2016-06-24T12:08:58Z</time></trkpt>
<trkpt lat="46.05036" lon="7.47941"><ele>2116.4</ele><time>2016-06-24T12:09:01Z</time></trkpt>
<trkpt lat="46.05035" lon="7.47941"><ele>2116.4</ele><time>2016-06-24T12:09:03Z</time></trkpt>
<trkpt lat="46.05035" lon="7.4794"><ele>2116.6</ele><time>2016-06-24T12:09:09Z</time></trkpt>
<trkpt lat="46.05035" lon="7.47939"><ele>2116.8</ele><time>2016-06-24T12:09:18Z</time></trkpt>
<trkpt lat="46.05036" lon="7.47941"><ele>2116</ele><time>2016-06-24T12:09:36Z</time></trkpt>
<trkpt lat="46.05036" lon="7.47944"><ele>2116.2</ele><time>2016-06-24T12:09:54Z</time></trkpt>
<trkpt lat="46.05035" lon="7.47944"><ele>2115.8</ele><time>2016-06-24T12:10:12Z</time></trkpt>
<trkpt lat="46.05035" lon="7.47943"><ele>2115.6</ele><time>2016-06-24T12:10:25Z</time></trkpt>
<trkpt lat="46.05036" lon="7.47946"><ele>2115.8</ele><time>2016-06-24T12:10:38Z</time></trkpt>
<trkpt lat="46.05035" lon="7.47942"><ele>2115.2</ele><time>2016-06-24T12:11:00Z</time></trkpt>
<trkpt lat="46.05035" lon="7.47941"><ele>2115.2</ele><time>2016-06-24T12:11:03Z</time></trkpt>
<trkpt lat="46.05034" lon="7.4794"><ele>2116</ele><time>2016-06-24T12:11:15Z</time></trkpt>
<trkpt lat="46.05036" lon="7.47942"><ele>2115.4</ele><time>2016-06-24T12:11:52Z</time></trkpt>
<trkpt lat="46.05037" lon="7.47942"><ele>2115.2</ele><time>2016-06-24T12:11:55Z</time></trkpt>
<trkpt lat="46.05038" lon="7.47941"><ele>2115.2</ele><time>2016-06-24T12:12:03Z</time></trkpt>
<trkpt lat="46.05038" lon="7.47941"><ele>2114.8</ele><time>2016-06-24T12:12:17Z</time></trkpt>
<trkpt lat="46.05038" lon="7.47942"><ele>2115</ele><time>2016-06-24T12:12:23Z</time></trkpt>
<trkpt lat="46.05037" lon="7.47942"><ele>2115.4</ele><time>2016-06-24T12:12:29Z</time></trkpt>
<trkpt lat="46.05037" lon="7.47943"><ele>2115.6</ele><time>2016-06-24T12:12:33Z</time></trkpt>
<trkpt lat="46.05036" lon="7.47943"><ele>2115.6</ele><time>2016-06-24T12:12:44Z</time></trkpt>
<trkpt lat="46.05037" lon="7.47941"><ele>2115.8</ele><time>2016-06-24T12:13:08Z</time></trkpt>
<trkpt lat="46.05036" lon="7.47941"><ele>2113.6</ele><time>2016-06-24T12:13:39Z</time></trkpt>
<trkpt lat="46.05036" lon="7.47942"><ele>2113.4</ele><time>2016-06-24T12:13:43Z</time></trkpt>
<trkpt lat="46.05037" lon="7.47943"><ele>2114.4</ele><time>2016-06-24T12:13:53Z</time></trkpt>
<trkpt lat="46.05037" lon="7.47942"><ele>2114.6</ele><time>2016-06-24T12:13:56Z</time></trkpt>
<trkpt lat="46.05037" lon="7.47942"><ele>2114.4</ele><time>2016-06-24T12:14:04Z</time></trkpt>
<trkpt lat="46.05037" lon="7.47942"><ele>2114</ele><time>2016-06-24T12:14:07Z</time></trkpt>
<trkpt lat="46.05036" lon="7.47941"><ele>2113.2</ele><time>2016-06-24T12:14:21Z</time></trkpt>
<trkpt lat="46.05035" lon="7.47942"><ele>2114.2</ele><time>2016-06-24T12:14:31Z</time></trkpt>
<trkpt lat="46.05036" lon="7.47941"><ele>2114</ele><time>2016-06-24T12:14:42Z</time></trkpt>
<trkpt lat="46.05036" lon="7.4794"><ele>2113.6</ele><time>2016-06-24T12:14:47Z</time></trkpt>
<trkpt lat="46.05036" lon="7.47939"><ele>2113.2</ele><time>2016-06-24T12:14:51Z</time></trkpt>
<trkpt lat="46.05036" lon="7.47942"><ele>2113.2</ele><time>2016-06-24T12:15:16Z</time></trkpt>
<trkpt lat="46.05036" lon="7.47942"><ele>2113.6</ele><time>2016-06-24T12:15:19Z</time></trkpt>
<trkpt lat="46.05036" lon="7.47943"><ele>2113.8</ele><time>2016-06-24T12:15:22Z</time></trkpt>
<trkpt lat="46.05035" lon="7.47943"><ele>2114</ele><time>2016-06-24T12:15:24Z</time></trkpt>
<trkpt lat="46.05036" lon="7.47942"><ele>2114.2</ele><time>2016-06-24T12:15:27Z</time></trkpt>
<trkpt lat="46.05036" lon="7.47943"><ele>2114.2</ele><time>2016-06-24T12:15:29Z</time></trkpt>
<trkpt lat="46.05034" lon="7.47943"><ele>2114</ele><time>2016-06-24T12:15:36Z</time></trkpt>
<trkpt lat="46.05036" lon="7.47942"><ele>2114</ele><time>2016-06-24T12:15:55Z</time></trkpt>
<trkpt lat="46.05035" lon="7.47942"><ele>2114</ele><time>2016-06-24T12:16:00Z</time></trkpt>
<trkpt lat="46.05035" lon="7.47945"><ele>2113.6</ele><time>2016-06-24T12:16:17Z</time></trkpt>
<trkpt lat="46.05034" lon="7.47946"><ele>2113.4</ele><time>2016-06-24T12:16:26Z</time></trkpt>
<trkpt lat="46.05034" lon="7.47946"><ele>2113.8</ele><time>2016-06-24T12:16:46Z</time></trkpt>
<trkpt lat="46.05035" lon="7.47947"><ele>2114.6</ele><time>2016-06-24T12:16:53Z</time></trkpt>
<trkpt lat="46.05035" lon="7.47947"><ele>2114.8</ele><time>2016-06-24T12:16:55Z</time></trkpt>
<trkpt lat="46.05035" lon="7.47947"><ele>2115</ele><time>2016-06-24T12:16:57Z</time></trkpt>
<trkpt lat="46.05035" lon="7.47948"><ele>2115.2</ele><time>2016-06-24T12:17:06Z</time></trkpt>
<trkpt lat="46.05035" lon="7.47945"><ele>2114.6</ele><time>2016-06-24T12:17:17Z</time></trkpt>
<trkpt lat="46.05035" lon="7.47944"><ele>2114.2</ele><time>2016-06-24T12:17:18Z</time></trkpt>
<trkpt lat="46.05035" lon="7.47942"><ele>2113</ele><time>2016-06-24T12:17:26Z</time></trkpt>
<trkpt lat="46.05035" lon="7.47943"><ele>2110.6</ele><time>2016-06-24T12:17:54Z</time></trkpt>
<trkpt lat="46.05036" lon="7.47943"><ele>2110</ele><time>2016-06-24T12:18:13Z</time></trkpt>
<trkpt lat="46.05037" lon="7.47943"><ele>2110.4</ele><time>2016-06-24T12:18:29Z</time></trkpt>
<trkpt lat="46.05032" lon="7.47944"><ele>2109</ele><time>2016-06-24T12:19:03Z</time></trkpt>
<trkpt lat="46.05033" lon="7.47944"><ele>2109.6</ele><time>2016-06-24T12:19:14Z</time></trkpt>
<trkpt lat="46.05033" lon="7.47944"><ele>2109.8</ele><time>2016-06-24T12:19:20Z</time></trkpt>
<trkpt lat="46.05034" lon="7.47947"><ele>2111.6</ele><time>2016-06-24T12:19:36Z</time></trkpt>
<trkpt lat="46.05034" lon="7.47949"><ele>2112.6</ele><time>2016-06-24T12:19:44Z</time></trkpt>
<trkpt lat="46.05034" lon="7.47949"><ele>2113.4</ele><time>2016-06-24T12:19:47Z</time></trkpt>
<trkpt lat="46.05037" lon="7.47949"><ele>2115.2</ele><time>2016-06-24T12:20:05Z</time></trkpt>
<trkpt lat="46.05036" lon="7.47947"><ele>2115.2</ele><time>2016-06-24T12:20:12Z</time></trkpt>
<trkpt lat="46.05036" lon="7.47944"><ele>2114.8</ele><time>2016-06-24T12:20:17Z</time></trkpt>
<trkpt lat="46.05036" lon="7.47943"><ele>2114.8</ele><time>2016-06-24T12:20:18Z</time></trkpt>
<trkpt lat="46.05036" lon="7.47942"><ele>2114.8</ele><time>2016-06-24T12:20:22Z</time></trkpt>
<trkpt lat="46.05036" lon="7.47942"><ele>2114.8</ele><time>2016-06-24T12:20:23Z</time></trkpt>
<trkpt lat="46.05036" lon="7.47942"><ele>2114.6</ele><time>2016-06-24T12:20:25Z</time></trkpt>
<trkpt lat="46.05035" lon="7.47942"><ele>2114.2</ele><time>2016-06-24T12:20:30Z</time></trkpt>
<trkpt lat="46.05035" lon="7.47942"><ele>2114</ele><time>2016-06-24T12:20:38Z</time></trkpt>
<trkpt lat="46.05035" lon="7.47942"><ele>2114</ele><time>2016-06-24T12:20:39Z</time></trkpt>
<trkpt lat="46.05035" lon="7.47943"><ele>2113.8</ele><time>2016-06-24T12:20:42Z</time></trkpt>
<trkpt lat="46.05037" lon="7.47943"><ele>2115</ele><time>2016-06-24T12:20:49Z</time></trkpt>
<trkpt lat="46.05037" lon="7.47943"><ele>2114.8</ele><time>2016-06-24T12:20:50Z</time></trkpt>
<trkpt lat="46.05037" lon="7.47943"><ele>2114.8</ele><time>2016-06-24T12:20:52Z</time></trkpt>
<trkpt lat="46.05037" lon="7.47944"><ele>2115</ele><time>2016-06-24T12:20:58Z</time></trkpt>
<trkpt lat="46.05037" lon="7.47943"><ele>2114</ele><time>2016-06-24T12:21:05Z</time></trkpt>
<trkpt lat="46.05037" lon="7.47942"><ele>2114</ele><time>2016-06-24T12:21:06Z</time></trkpt>
<trkpt lat="46.05036" lon="7.47942"><ele>2114.2</ele><time>2016-06-24T12:21:08Z</time></trkpt>
<trkpt lat="46.05036" lon="7.47942"><ele>2114.2</ele><time>2016-06-24T12:21:09Z</time></trkpt>
<trkpt lat="46.05036" lon="7.47943"><ele>2114.2</ele><time>2016-06-24T12:21:13Z</time></trkpt>
<trkpt lat="46.05036" lon="7.47942"><ele>2114</ele><time>2016-06-24T12:21:19Z</time></trkpt>
<trkpt lat="46.05036" lon="7.47942"><ele>2114</ele><time>2016-06-24T12:21:20Z</time></trkpt>
<trkpt lat="46.05036" lon="7.47942"><ele>2113.8</ele><time>2016-06-24T12:21:24Z</time></trkpt>
<trkpt lat="46.05036" lon="7.4794"><ele>2113</ele><time>2016-06-24T12:21:44Z</time></trkpt>
<trkpt lat="46.05036" lon="7.47941"><ele>2112.8</ele><time>2016-06-24T12:21:48Z</time></trkpt>
<trkpt lat="46.05036" lon="7.47941"><ele>2112.6</ele><time>2016-06-24T12:21:52Z</time></trkpt>
<trkpt lat="46.05035" lon="7.47941"><ele>2112.8</ele><time>2016-06-24T12:21:54Z</time></trkpt>
<trkpt lat="46.05035" lon="7.47942"><ele>2113</ele><time>2016-06-24T12:22:01Z</time></trkpt>
<trkpt lat="46.05035" lon="7.47943"><ele>2113.2</ele><time>2016-06-24T12:22:04Z</time></trkpt>
<trkpt lat="46.05035" lon="7.47944"><ele>2113.2</ele><time>2016-06-24T12:22:05Z</time></trkpt>
<trkpt lat="46.05035" lon="7.47944"><ele>2113.2</ele><time>2016-06-24T12:22:08Z</time></trkpt>
<trkpt lat="46.05033" lon="7.47945"><ele>2113.4</ele><time>2016-06-24T12:22:19Z</time></trkpt>
<trkpt lat="46.05034" lon="7.47946"><ele>2113.6</ele><time>2016-06-24T12:22:21Z</time></trkpt>
<trkpt lat="46.05034" lon="7.47945"><ele>2113.6</ele><time>2016-06-24T12:22:26Z</time></trkpt>
<trkpt lat="46.05034" lon="7.47944"><ele>2113.8</ele><time>2016-06-24T12:22:30Z</time></trkpt>
<trkpt lat="46.05034" lon="7.47944"><ele>2113.8</ele><time>2016-06-24T12:22:31Z</time></trkpt>
<trkpt lat="46.05034" lon="7.47944"><ele>2113.6</ele><time>2016-06-24T12:22:32Z</time></trkpt>
<trkpt lat="46.05034" lon="7.47944"><ele>2113.6</ele><time>2016-06-24T12:22:33Z</time></trkpt>
<trkpt lat="46.05035" lon="7.47944"><ele>2113.2</ele><time>2016-06-24T12:22:48Z</time></trkpt>
<trkpt lat="46.05038" lon="7.47938"><ele>2113.8</ele><time>2016-06-24T12:23:00Z</time></trkpt>
<trkpt lat="46.05042" lon="7.47937"><ele>2113.8</ele><time>2016-06-24T12:23:06Z</time></trkpt>
<trkpt lat="46.05043" lon="7.47937"><ele>2113.6</ele><time>2016-06-24T12:23:08Z</time></trkpt>
<trkpt lat="46.05046" lon="7.47938"><ele>2113.8</ele><time>2016-06-24T12:23:14Z</time></trkpt>
<trkpt lat="46.05049" lon="7.47938"><ele>2113.2</ele><time>2016-06-24T12:23:20Z</time></trkpt>
<trkpt lat="46.0505" lon="7.47938"><ele>2113.2</ele><time>2016-06-24T12:23:22Z</time></trkpt>
<trkpt lat="46.05035" lon="7.4794"><ele>2112</ele><time>2016-06-24T12:23:48Z</time></trkpt>
<trkpt lat="46.05037" lon="7.47941"><ele>2111.4</ele><time>2016-06-24T12:23:57Z</time></trkpt>
<trkpt lat="46.05039" lon="7.47941"><ele>2111.2</ele><time>2016-06-24T12:23:59Z</time></trkpt>
<trkpt lat="46.05042" lon="7.4794"><ele>2111.2</ele><time>2016-06-24T12:24:02Z</time></trkpt>
<trkpt lat="46.0505" lon="7.47936"><ele>2111.6</ele><time>2016-06-24T12:24:11Z</time></trkpt>
<trkpt lat="46.05054" lon="7.47939"><ele>2111.4</ele><time>2016-06-24T12:24:20Z</time></trkpt>
<trkpt lat="46.05051" lon="7.47943"><ele>2110.6</ele><time>2016-06-24T12:24:34Z</time></trkpt>
<trkpt lat="46.05051" lon="7.47943"><ele>2110.6</ele><time>2016-06-24T12:24:35Z</time></trkpt>
<trkpt lat="46.05051" lon="7.47943"><ele>2109.6</ele><time>2016-06-24T12:24:49Z</time></trkpt>
<trkpt lat="46.05058" lon="7.47945"><ele>2108.4</ele><time>2016-06-24T12:25:09Z</time></trkpt>
<trkpt lat="46.05057" lon="7.47947"><ele>2108</ele><time>2016-06-24T12:25:15Z</time></trkpt>
<trkpt lat="46.05057" lon="7.47947"><ele>2107.8</ele><time>2016-06-24T12:25:19Z</time></trkpt>
<trkpt lat="46.05056" lon="7.47947"><ele>2107.6</ele><time>2016-06-24T12:25:22Z</time></trkpt>
<trkpt lat="46.05055" lon="7.47941"><ele>2108.4</ele><time>2016-06-24T12:25:46Z</time></trkpt>
<trkpt lat="46.05055" lon="7.47939"><ele>2108.6</ele><time>2016-06-24T12:25:49Z</time></trkpt>
<trkpt lat="46.05046" lon="7.47936"><ele>2109.2</ele><time>2016-06-24T12:26:12Z</time></trkpt>
<trkpt lat="46.05039" lon="7.47941"><ele>2109.6</ele><time>2016-06-24T12:26:25Z</time></trkpt>
<trkpt lat="46.05034" lon="7.47942"><ele>2110.4</ele><time>2016-06-24T12:26:47Z</time></trkpt>
<trkpt lat="46.05033" lon="7.47942"><ele>2110.4</ele><time>2016-06-24T12:27:11Z</time></trkpt>
<trkpt lat="46.05032" lon="7.47942"><ele>2110.2</ele><time>2016-06-24T12:27:14Z</time></trkpt>
<trkpt lat="46.05031" lon="7.47943"><ele>2109.8</ele><time>2016-06-24T12:27:20Z</time></trkpt>
<trkpt lat="46.05021" lon="7.47941"><ele>2109</ele><time>2016-06-24T12:27:41Z</time></trkpt>
<trkpt lat="46.05005" lon="7.4795"><ele>2108.8</ele><time>2016-06-24T12:28:00Z</time></trkpt>
<trkpt lat="46.05003" lon="7.47951"><ele>2108.8</ele><time>2016-06-24T12:28:03Z</time></trkpt>
<trkpt lat="46.04991" lon="7.47941"><ele>2109.2</ele><time>2016-06-24T12:28:23Z</time></trkpt>
<trkpt lat="46.04992" lon="7.4794"><ele>2109.4</ele><time>2016-06-24T12:28:26Z</time></trkpt>
<trkpt lat="46.04992" lon="7.47939"><ele>2109.6</ele><time>2016-06-24T12:28:31Z</time></trkpt>
<trkpt lat="46.04995" lon="7.47938"><ele>2110</ele><time>2016-06-24T12:28:43Z</time></trkpt>
<trkpt lat="46.05" lon="7.4794"><ele>2110.4</ele><time>2016-06-24T12:28:48Z</time></trkpt>
<trkpt lat="46.05004" lon="7.47941"><ele>2109.8</ele><time>2016-06-24T12:28:52Z</time></trkpt>
<trkpt lat="46.05005" lon="7.47942"><ele>2109.6</ele><time>2016-06-24T12:28:53Z</time></trkpt>
<trkpt lat="46.05009" lon="7.47943"><ele>2109.6</ele><time>2016-06-24T12:28:56Z</time></trkpt>
<trkpt lat="46.05012" lon="7.4794"><ele>2109.4</ele><time>2016-06-24T12:28:59Z</time></trkpt>
<trkpt lat="46.05018" lon="7.47934"><ele>2109.4</ele><time>2016-06-24T12:29:07Z</time></trkpt>
<trkpt lat="46.0502" lon="7.47933"><ele>2109.6</ele><time>2016-06-24T12:29:10Z</time></trkpt>
<trkpt lat="46.05025" lon="7.47934"><ele>2110</ele><time>2016-06-24T12:29:16Z</time></trkpt>
<trkpt lat="46.05028" lon="7.47933"><ele>2110.4</ele><time>2016-06-24T12:29:19Z</time></trkpt>
<trkpt lat="46.05031" lon="7.47933"><ele>2110.6</ele><time>2016-06-24T12:29:23Z</time></trkpt>
<trkpt lat="46.05033" lon="7.47933"><ele>2110.8</ele><time>2016-06-24T12:29:25Z</time></trkpt>
<trkpt lat="46.05037" lon="7.47934"><ele>2111.2</ele><time>2016-06-24T12:29:30Z</time></trkpt>
<trkpt lat="46.05035" lon="7.4794"><ele>2110.6</ele><time>2016-06-24T12:29:40Z</time></trkpt>
<trkpt lat="46.05035" lon="7.4794"><ele>2110.8</ele><time>2016-06-24T12:29:44Z</time></trkpt>
<trkpt lat="46.05037" lon="7.47939"><ele>2110.2</ele><time>2016-06-24T12:29:57Z</time></trkpt>
<trkpt lat="46.05037" lon="7.47939"><ele>2110</ele><time>2016-06-24T12:29:59Z</time></trkpt>
<trkpt lat="46.05038" lon="7.47939"><ele>2110</ele><time>2016-06-24T12:30:00Z</time></trkpt>
<trkpt lat="46.05038" lon="7.4794"><ele>2110</ele><time>2016-06-24T12:30:01Z</time></trkpt>
<trkpt lat="46.05038" lon="7.4794"><ele>2110</ele><time>2016-06-24T12:30:02Z</time></trkpt>
<trkpt lat="46.05038" lon="7.4794"><ele>2110</ele><time>2016-06-24T12:30:04Z</time></trkpt>
<trkpt lat="46.05038" lon="7.4794"><ele>2110</ele><time>2016-06-24T12:30:05Z</time></trkpt>
<trkpt lat="46.05038" lon="7.4794"><ele>2109.8</ele><time>2016-06-24T12:30:08Z</time></trkpt>
<trkpt lat="46.05038" lon="7.47941"><ele>2109.6</ele><time>2016-06-24T12:30:12Z</time></trkpt>
<trkpt lat="46.05038" lon="7.47942"><ele>2109.4</ele><time>2016-06-24T12:30:15Z</time></trkpt>
<trkpt lat="46.05038" lon="7.47943"><ele>2109.4</ele><time>2016-06-24T12:30:18Z</time></trkpt>
<trkpt lat="46.05039" lon="7.47942"><ele>2109.2</ele><time>2016-06-24T12:30:22Z</time></trkpt>
<trkpt lat="46.05038" lon="7.47944"><ele>2108.8</ele><time>2016-06-24T12:30:28Z</time></trkpt>
<trkpt lat="46.05038" lon="7.47944"><ele>2108.8</ele><time>2016-06-24T12:30:30Z</time></trkpt>
<trkpt lat="46.05038" lon="7.47944"><ele>2108.8</ele><time>2016-06-24T12:30:31Z</time></trkpt>
<trkpt lat="46.05038" lon="7.47944"><ele>2108.8</ele><time>2016-06-24T12:30:32Z</time></trkpt>
<trkpt lat="46.05035" lon="7.47946"><ele>2108.6</ele><time>2016-06-24T12:30:43Z</time></trkpt>
<trkpt lat="46.05037" lon="7.47943"><ele>2108.4</ele><time>2016-06-24T12:30:47Z</time></trkpt>
<trkpt lat="46.05036" lon="7.47942"><ele>2108.4</ele><time>2016-06-24T12:30:50Z</time></trkpt>
<trkpt lat="46.05036" lon="7.47943"><ele>2108</ele><time>2016-06-24T12:30:59Z</time></trkpt>
<trkpt lat="46.05036" lon="7.47943"><ele>2108</ele><time>2016-06-24T12:31:00Z</time></trkpt>
<trkpt lat="46.05041" lon="7.47945"><ele>2108.4</ele><time>2016-06-24T12:31:10Z</time></trkpt>
<trkpt lat="46.0504" lon="7.47944"><ele>2108.2</ele><time>2016-06-24T12:31:12Z</time></trkpt>
<trkpt lat="46.05037" lon="7.47942"><ele>2108.2</ele><time>2016-06-24T12:31:16Z</time></trkpt>
<trkpt lat="46.05036" lon="7.47943"><ele>2107.8</ele><time>2016-06-24T12:31:34Z</time></trkpt>
<trkpt lat="46.05036" lon="7.47944"><ele>2107.6</ele><time>2016-06-24T12:31:35Z</time></trkpt>
<trkpt lat="46.05037" lon="7.47944"><ele>2107.6</ele><time>2016-06-24T12:31:37Z</time></trkpt>
<trkpt lat="46.05039" lon="7.47942"><ele>2107.4</ele><time>2016-06-24T12:31:40Z</time></trkpt>
<trkpt lat="46.0504" lon="7.47942"><ele>2107.2</ele><time>2016-06-24T12:31:46Z</time></trkpt>
<trkpt lat="46.05039" lon="7.4794"><ele>2107</ele><time>2016-06-24T12:31:51Z</time></trkpt>
<trkpt lat="46.05037" lon="7.4794"><ele>2107</ele><time>2016-06-24T12:31:53Z</time></trkpt>
<trkpt lat="46.05036" lon="7.4794"><ele>2107</ele><time>2016-06-24T12:31:55Z</time></trkpt>
<trkpt lat="46.05032" lon="7.47943"><ele>2106.4</ele><time>2016-06-24T12:32:16Z</time></trkpt>
<trkpt lat="46.05032" lon="7.47944"><ele>2106.2</ele><time>2016-06-24T12:32:21Z</time></trkpt>
<trkpt lat="46.05032" lon="7.47945"><ele>2106.2</ele><time>2016-06-24T12:32:33Z</time></trkpt>
<trkpt lat="46.05033" lon="7.47945"><ele>2106.2</ele><time>2016-06-24T12:32:37Z</time></trkpt>
<trkpt lat="46.05033" lon="7.47945"><ele>2106.2</ele><time>2016-06-24T12:32:38Z</time></trkpt>
<trkpt lat="46.05033" lon="7.47944"><ele>2106</ele><time>2016-06-24T12:32:39Z</time></trkpt>
<trkpt lat="46.05033" lon="7.47944"><ele>2106</ele><time>2016-06-24T12:32:42Z</time></trkpt>
<trkpt lat="46.05033" lon="7.47944"><ele>2106</ele><time>2016-06-24T12:32:43Z</time></trkpt>
<trkpt lat="46.05033" lon="7.47944"><ele>2106</ele><time>2016-06-24T12:32:51Z</time></trkpt>
<trkpt lat="46.05025" lon="7.47943"><ele>2106.2</ele><time>2016-06-24T12:33:09Z</time></trkpt>
<trkpt lat="46.05025" lon="7.47942"><ele>2106.2</ele><time>2016-06-24T12:33:10Z</time></trkpt>
<trkpt lat="46.05009" lon="7.47948"><ele>2107.2</ele><time>2016-06-24T12:33:31Z</time></trkpt>
<trkpt lat="46.05005" lon="7.47961"><ele>2107.8</ele><time>2016-06-24T12:33:40Z</time></trkpt>
<trkpt lat="46.05015" lon="7.47978"><ele>2107</ele><time>2016-06-24T12:33:50Z</time></trkpt>
<trkpt lat="46.05024" lon="7.48012"><ele>2103.4</ele><time>2016-06-24T12:34:03Z</time></trkpt>
<trkpt lat="46.05031" lon="7.48035"><ele>2099.8</ele><time>2016-06-24T12:34:14Z</time></trkpt>
<trkpt lat="46.05031" lon="7.48038"><ele>2099.2</ele><time>2016-06-24T12:34:16Z</time></trkpt>
<trkpt lat="46.05031" lon="7.48039"><ele>2098.6</ele><time>2016-06-24T12:34:19Z</time></trkpt>
<trkpt lat="46.05031" lon="7.48039"><ele>2098.2</ele><time>2016-06-24T12:34:22Z</time></trkpt>
<trkpt lat="46.05031" lon="7.48042"><ele>2098</ele><time>2016-06-24T12:34:28Z</time></trkpt>
<trkpt lat="46.05031" lon="7.48043"><ele>2097.2</ele><time>2016-06-24T12:34:37Z</time></trkpt>
<trkpt lat="46.05043" lon="7.4806"><ele>2096.8</ele><time>2016-06-24T12:34:49Z</time></trkpt>
<trkpt lat="46.05041" lon="7.48074"><ele>2095</ele><time>2016-06-24T12:34:58Z</time></trkpt>
<trkpt lat="46.05045" lon="7.48091"><ele>2092.8</ele><time>2016-06-24T12:35:08Z</time></trkpt>
<trkpt lat="46.05046" lon="7.48098"><ele>2091.8</ele><time>2016-06-24T12:35:13Z</time></trkpt>
<trkpt lat="46.05051" lon="7.48127"><ele>2089</ele><time>2016-06-24T12:35:21Z</time></trkpt>
<trkpt lat="46.05055" lon="7.48143"><ele>2087.4</ele><time>2016-06-24T12:35:24Z</time></trkpt>
<trkpt lat="46.05057" lon="7.4815"><ele>2087</ele><time>2016-06-24T12:35:26Z</time></trkpt>
<trkpt lat="46.05069" lon="7.48173"><ele>2083.4</ele><time>2016-06-24T12:35:33Z</time></trkpt>
<trkpt lat="46.05083" lon="7.48186"><ele>2080.6</ele><time>2016-06-24T12:35:38Z</time></trkpt>
<trkpt lat="46.05087" lon="7.48191"><ele>2080</ele><time>2016-06-24T12:35:39Z</time></trkpt>
<trkpt lat="46.05096" lon="7.48212"><ele>2079.2</ele><time>2016-06-24T12:35:43Z</time></trkpt>
<trkpt lat="46.05097" lon="7.4822"><ele>2078.8</ele><time>2016-06-24T12:35:45Z</time></trkpt>
<trkpt lat="46.05108" lon="7.48243"><ele>2077.2</ele><time>2016-06-24T12:35:53Z</time></trkpt>
<trkpt lat="46.05112" lon="7.4825"><ele>2076.4</ele><time>2016-06-24T12:35:57Z</time></trkpt>
<trkpt lat="46.05112" lon="7.48253"><ele>2075.6</ele><time>2016-06-24T12:36:14Z</time></trkpt>
<trkpt lat="46.05113" lon="7.48252"><ele>2075.8</ele><time>2016-06-24T12:36:20Z</time></trkpt>
<trkpt lat="46.05112" lon="7.48252"><ele>2075.6</ele><time>2016-06-24T12:36:26Z</time></trkpt>
<trkpt lat="46.05114" lon="7.48255"><ele>2075.2</ele><time>2016-06-24T12:36:33Z</time></trkpt>
<trkpt lat="46.05113" lon="7.48255"><ele>2075</ele><time>2016-06-24T12:36:38Z</time></trkpt>
<trkpt lat="46.05107" lon="7.48253"><ele>2073.8</ele><time>2016-06-24T12:37:20Z</time></trkpt>
<trkpt lat="46.05107" lon="7.48252"><ele>2074</ele><time>2016-06-24T12:37:25Z</time></trkpt>
<trkpt lat="46.05108" lon="7.48253"><ele>2074</ele><time>2016-06-24T12:37:35Z</time></trkpt>
<trkpt lat="46.05104" lon="7.48255"><ele>2074</ele><time>2016-06-24T12:37:46Z</time></trkpt>
<trkpt lat="46.05103" lon="7.48255"><ele>2074</ele><time>2016-06-24T12:37:48Z</time></trkpt>
<trkpt lat="46.05104" lon="7.48255"><ele>2074.2</ele><time>2016-06-24T12:37:53Z</time></trkpt>
<trkpt lat="46.05105" lon="7.48259"><ele>2074.2</ele><time>2016-06-24T12:38:12Z</time></trkpt>
<trkpt lat="46.05105" lon="7.48259"><ele>2074.2</ele><time>2016-06-24T12:38:13Z</time></trkpt>
<trkpt lat="46.05104" lon="7.48257"><ele>2074.6</ele><time>2016-06-24T12:38:18Z</time></trkpt>
<trkpt lat="46.05104" lon="7.48254"><ele>2074.4</ele><time>2016-06-24T12:38:30Z</time></trkpt>
<trkpt lat="46.05104" lon="7.48254"><ele>2074.4</ele><time>2016-06-24T12:38:32Z</time></trkpt>
<trkpt lat="46.05107" lon="7.48257"><ele>2074.6</ele><time>2016-06-24T12:38:36Z</time></trkpt>
<trkpt lat="46.05109" lon="7.48258"><ele>2074.4</ele><time>2016-06-24T12:38:40Z</time></trkpt>
<trkpt lat="46.05109" lon="7.48255"><ele>2074.4</ele><time>2016-06-24T12:38:43Z</time></trkpt>
<trkpt lat="46.05103" lon="7.48241"><ele>2074.6</ele><time>2016-06-24T12:38:50Z</time></trkpt>
<trkpt lat="46.05102" lon="7.48237"><ele>2074.8</ele><time>2016-06-24T12:38:52Z</time></trkpt>
<trkpt lat="46.05103" lon="7.48236"><ele>2074.6</ele><time>2016-06-24T12:39:09Z</time></trkpt>
<trkpt lat="46.05108" lon="7.48247"><ele>2074.6</ele><time>2016-06-24T12:39:13Z</time></trkpt>
<trkpt lat="46.05115" lon="7.48254"><ele>2074.6</ele><time>2016-06-24T12:39:18Z</time></trkpt>
<trkpt lat="46.05115" lon="7.48254"><ele>2074.6</ele><time>2016-06-24T12:39:19Z</time></trkpt>
<trkpt lat="46.05115" lon="7.48249"><ele>2073.8</ele><time>2016-06-24T12:39:29Z</time></trkpt>
<trkpt lat="46.05118" lon="7.48252"><ele>2073.6</ele><time>2016-06-24T12:39:35Z</time></trkpt>
<trkpt lat="46.05115" lon="7.48253"><ele>2074.2</ele><time>2016-06-24T12:39:41Z</time></trkpt>
<trkpt lat="46.05115" lon="7.48253"><ele>2074.6</ele><time>2016-06-24T12:39:49Z</time></trkpt>
<trkpt lat="46.05113" lon="7.48255"><ele>2074.6</ele><time>2016-06-24T12:40:13Z</time></trkpt>
<trkpt lat="46.05114" lon="7.48255"><ele>2074.4</ele><time>2016-06-24T12:40:20Z</time></trkpt>
<trkpt lat="46.05114" lon="7.48256"><ele>2074.4</ele><time>2016-06-24T12:40:21Z</time></trkpt>
<trkpt lat="46.05116" lon="7.48255"><ele>2074.2</ele><time>2016-06-24T12:40:29Z</time></trkpt>
<trkpt lat="46.05115" lon="7.48253"><ele>2074.2</ele><time>2016-06-24T12:40:36Z</time></trkpt>
<trkpt lat="46.05114" lon="7.48253"><ele>2074.4</ele><time>2016-06-24T12:40:39Z</time></trkpt>
<trkpt lat="46.05115" lon="7.48255"><ele>2074.6</ele><time>2016-06-24T12:40:45Z</time></trkpt>
<trkpt lat="46.0512" lon="7.48261"><ele>2074.8</ele><time>2016-06-24T12:40:50Z</time></trkpt>
<trkpt lat="46.05124" lon="7.48263"><ele>2075</ele><time>2016-06-24T12:40:53Z</time></trkpt>
<trkpt lat="46.0514" lon="7.48274"><ele>2075</ele><time>2016-06-24T12:41:03Z</time></trkpt>
<trkpt lat="46.05147" lon="7.48279"><ele>2074.6</ele><time>2016-06-24T12:41:06Z</time></trkpt>
<trkpt lat="46.05155" lon="7.48284"><ele>2074.4</ele><time>2016-06-24T12:41:10Z</time></trkpt>
<trkpt lat="46.05157" lon="7.48285"><ele>2074.2</ele><time>2016-06-24T12:41:11Z</time></trkpt>
<trkpt lat="46.05163" lon="7.48288"><ele>2073.8</ele><time>2016-06-24T12:41:14Z</time></trkpt>
<trkpt lat="46.05175" lon="7.48296"><ele>2072.4</ele><time>2016-06-24T12:41:22Z</time></trkpt>
<trkpt lat="46.05183" lon="7.48298"><ele>2072.2</ele><time>2016-06-24T12:41:27Z</time></trkpt>
<trkpt lat="46.0519" lon="7.48301"><ele>2071.6</ele><time>2016-06-24T12:41:31Z</time></trkpt>
<trkpt lat="46.052" lon="7.48304"><ele>2072</ele><time>2016-06-24T12:41:36Z</time></trkpt>
<trkpt lat="46.05208" lon="7.48302"><ele>2072.2</ele><time>2016-06-24T12:41:40Z</time></trkpt>
<trkpt lat="46.05211" lon="7.48302"><ele>2072.2</ele><time>2016-06-24T12:41:42Z</time></trkpt>
<trkpt lat="46.05216" lon="7.48297"><ele>2071.8</ele><time>2016-06-24T12:41:46Z</time></trkpt>
<trkpt lat="46.05216" lon="7.4829"><ele>2071.2</ele><time>2016-06-24T12:41:51Z</time></trkpt>
<trkpt lat="46.05217" lon="7.48289"><ele>2071.2</ele><time>2016-06-24T12:41:52Z</time></trkpt>
<trkpt lat="46.05233" lon="7.48296"><ele>2070.2</ele><time>2016-06-24T12:42:06Z</time></trkpt>
<trkpt lat="46.05246" lon="7.48296"><ele>2065.8</ele><time>2016-06-24T12:42:36Z</time></trkpt>
<trkpt lat="46.05246" lon="7.483"><ele>2065.8</ele><time>2016-06-24T12:42:43Z</time></trkpt>
<trkpt lat="46.05245" lon="7.483"><ele>2066.2</ele><time>2016-06-24T12:42:50Z</time></trkpt>
<trkpt lat="46.05246" lon="7.48302"><ele>2067.4</ele><time>2016-06-24T12:43:00Z</time></trkpt>
<trkpt lat="46.05246" lon="7.48303"><ele>2067.4</ele><time>2016-06-24T12:43:03Z</time></trkpt>
<trkpt lat="46.05245" lon="7.48304"><ele>2067.4</ele><time>2016-06-24T12:43:05Z</time></trkpt>
<trkpt lat="46.0524" lon="7.48306"><ele>2067.8</ele><time>2016-06-24T12:43:12Z</time></trkpt>
<trkpt lat="46.0524" lon="7.48306"><ele>2068.2</ele><time>2016-06-24T12:43:16Z</time></trkpt>
<trkpt lat="46.05239" lon="7.48306"><ele>2068.4</ele><time>2016-06-24T12:43:18Z</time></trkpt>
<trkpt lat="46.05238" lon="7.48306"><ele>2068.4</ele><time>2016-06-24T12:43:19Z</time></trkpt>
<trkpt lat="46.05238" lon="7.48306"><ele>2068.4</ele><time>2016-06-24T12:43:20Z</time></trkpt>
<trkpt lat="46.05238" lon="7.48306"><ele>2069</ele><time>2016-06-24T12:43:28Z</time></trkpt>
<trkpt lat="46.05242" lon="7.48304"><ele>2068.8</ele><time>2016-06-24T12:43:36Z</time></trkpt>
<trkpt lat="46.05243" lon="7.48304"><ele>2068.8</ele><time>2016-06-24T12:43:38Z</time></trkpt>
<trkpt lat="46.05244" lon="7.48303"><ele>2068.8</ele><time>2016-06-24T12:43:40Z</time></trkpt>
<trkpt lat="46.05244" lon="7.48303"><ele>2068.6</ele><time>2016-06-24T12:43:45Z</time></trkpt>
<trkpt lat="46.05245" lon="7.48301"><ele>2068.6</ele><time>2016-06-24T12:43:47Z</time></trkpt>
<trkpt lat="46.05245" lon="7.48301"><ele>2068.6</ele><time>2016-06-24T12:43:48Z</time></trkpt>
<trkpt lat="46.05244" lon="7.48302"><ele>2068.8</ele><time>2016-06-24T12:43:53Z</time></trkpt>
<trkpt lat="46.05225" lon="7.48297"><ele>2070.6</ele><time>2016-06-24T12:44:09Z</time></trkpt>
<trkpt lat="46.05219" lon="7.48292"><ele>2070.8</ele><time>2016-06-24T12:44:17Z</time></trkpt>
<trkpt lat="46.05219" lon="7.48291"><ele>2071</ele><time>2016-06-24T12:44:19Z</time></trkpt>
<trkpt lat="46.05227" lon="7.48296"><ele>2071.4</ele><time>2016-06-24T12:44:26Z</time></trkpt>
<trkpt lat="46.05239" lon="7.48299"><ele>2072</ele><time>2016-06-24T12:44:32Z</time></trkpt>
<trkpt lat="46.05242" lon="7.48299"><ele>2072.4</ele><time>2016-06-24T12:44:34Z</time></trkpt>
<trkpt lat="46.05244" lon="7.483"><ele>2072.6</ele><time>2016-06-24T12:44:37Z</time></trkpt>
<trkpt lat="46.05244" lon="7.48302"><ele>2072.2</ele><time>2016-06-24T12:44:40Z</time></trkpt>
<trkpt lat="46.05247" lon="7.48302"><ele>2070.4</ele><time>2016-06-24T12:44:59Z</time></trkpt>
<trkpt lat="46.05247" lon="7.48302"><ele>2070.4</ele><time>2016-06-24T12:45:01Z</time></trkpt>
<trkpt lat="46.05248" lon="7.48301"><ele>2070.2</ele><time>2016-06-24T12:45:07Z</time></trkpt>
<trkpt lat="46.05248" lon="7.483"><ele>2069.6</ele><time>2016-06-24T12:45:16Z</time></trkpt>
<trkpt lat="46.05247" lon="7.48301"><ele>2069.6</ele><time>2016-06-24T12:45:20Z</time></trkpt>
<trkpt lat="46.05245" lon="7.48304"><ele>2069.6</ele><time>2016-06-24T12:45:28Z</time></trkpt>
<trkpt lat="46.05252" lon="7.48308"><ele>2069.6</ele><time>2016-06-24T12:45:37Z</time></trkpt>
<trkpt lat="46.05268" lon="7.48321"><ele>2068.8</ele><time>2016-06-24T12:45:46Z</time></trkpt>
<trkpt lat="46.0527" lon="7.48322"><ele>2068.6</ele><time>2016-06-24T12:45:47Z</time></trkpt>
<trkpt lat="46.05287" lon="7.48324"><ele>2067</ele><time>2016-06-24T12:45:59Z</time></trkpt>
<trkpt lat="46.05287" lon="7.48324"><ele>2066.6</ele><time>2016-06-24T12:46:01Z</time></trkpt>
<trkpt lat="46.05288" lon="7.48325"><ele>2066.6</ele><time>2016-06-24T12:46:06Z</time></trkpt>
<trkpt lat="46.05298" lon="7.48324"><ele>2066.4</ele><time>2016-06-24T12:46:13Z</time></trkpt>
<trkpt lat="46.05301" lon="7.48324"><ele>2066</ele><time>2016-06-24T12:46:16Z</time></trkpt>
<trkpt lat="46.05302" lon="7.48325"><ele>2065.8</ele><time>2016-06-24T12:46:18Z</time></trkpt>
<trkpt lat="46.05303" lon="7.48326"><ele>2065.2</ele><time>2016-06-24T12:46:24Z</time></trkpt>
<trkpt lat="46.05313" lon="7.48327"><ele>2064.2</ele><time>2016-06-24T12:46:35Z</time></trkpt>
<trkpt lat="46.0533" lon="7.48336"><ele>2063</ele><time>2016-06-24T12:46:46Z</time></trkpt>
<trkpt lat="46.05344" lon="7.48336"><ele>2062.8</ele><time>2016-06-24T12:46:55Z</time></trkpt>
<trkpt lat="46.05346" lon="7.48334"><ele>2063.2</ele><time>2016-06-24T12:46:57Z</time></trkpt>
<trkpt lat="46.05353" lon="7.48327"><ele>2062.8</ele><time>2016-06-24T12:47:07Z</time></trkpt>
<trkpt lat="46.05354" lon="7.48325"><ele>2062.6</ele><time>2016-06-24T12:47:10Z</time></trkpt>
<trkpt lat="46.05357" lon="7.48321"><ele>2062.2</ele><time>2016-06-24T12:47:17Z</time></trkpt>
<trkpt lat="46.05357" lon="7.4832"><ele>2062.4</ele><time>2016-06-24T12:47:22Z</time></trkpt>
<trkpt lat="46.0536" lon="7.48314"><ele>2062.8</ele><time>2016-06-24T12:47:31Z</time></trkpt>
<trkpt lat="46.05362" lon="7.48313"><ele>2063</ele><time>2016-06-24T12:47:32Z</time></trkpt>
<trkpt lat="46.05372" lon="7.4831"><ele>2062.8</ele><time>2016-06-24T12:47:37Z</time></trkpt>
<trkpt lat="46.05381" lon="7.48313"><ele>2062</ele><time>2016-06-24T12:47:47Z</time></trkpt>
<trkpt lat="46.0538" lon="7.48318"><ele>2061.8</ele><time>2016-06-24T12:47:52Z</time></trkpt>
<trkpt lat="46.05383" lon="7.48322"><ele>2061.8</ele><time>2016-06-24T12:47:59Z</time></trkpt>
<trkpt lat="46.05386" lon="7.48323"><ele>2061.8</ele><time>2016-06-24T12:48:02Z</time></trkpt>
<trkpt lat="46.05389" lon="7.48331"><ele>2061.6</ele><time>2016-06-24T12:48:10Z</time></trkpt>
<trkpt lat="46.05391" lon="7.48333"><ele>2061.4</ele><time>2016-06-24T12:48:12Z</time></trkpt>
<trkpt lat="46.05393" lon="7.48335"><ele>2061.2</ele><time>2016-06-24T12:48:15Z</time></trkpt>
<trkpt lat="46.05393" lon="7.48335"><ele>2061</ele><time>2016-06-24T12:48:19Z</time></trkpt>
<trkpt lat="46.05394" lon="7.48335"><ele>2061</ele><time>2016-06-24T12:48:21Z</time></trkpt>
<trkpt lat="46.05412" lon="7.48339"><ele>2060.8</ele><time>2016-06-24T12:48:29Z</time></trkpt>
<trkpt lat="46.05414" lon="7.48339"><ele>2060.8</ele><time>2016-06-24T12:48:31Z</time></trkpt>
<trkpt lat="46.05415" lon="7.48338"><ele>2060.4</ele><time>2016-06-24T12:48:34Z</time></trkpt>
<trkpt lat="46.0542" lon="7.48338"><ele>2059.8</ele><time>2016-06-24T12:48:39Z</time></trkpt>
<trkpt lat="46.05426" lon="7.48341"><ele>2058.6</ele><time>2016-06-24T12:48:44Z</time></trkpt>
<trkpt lat="46.05435" lon="7.4834"><ele>2056.8</ele><time>2016-06-24T12:48:50Z</time></trkpt>
<trkpt lat="46.05436" lon="7.48338"><ele>2056.4</ele><time>2016-06-24T12:48:51Z</time></trkpt>
<trkpt lat="46.0544" lon="7.48336"><ele>2055.6</ele><time>2016-06-24T12:48:55Z</time></trkpt>
<trkpt lat="46.05441" lon="7.48336"><ele>2055.6</ele><time>2016-06-24T12:48:56Z</time></trkpt>
<trkpt lat="46.05453" lon="7.48337"><ele>2055.4</ele><time>2016-06-24T12:49:03Z</time></trkpt>
<trkpt lat="46.05455" lon="7.48335"><ele>2055.2</ele><time>2016-06-24T12:49:06Z</time></trkpt>
<trkpt lat="46.05455" lon="7.48333"><ele>2055</ele><time>2016-06-24T12:49:08Z</time></trkpt>
<trkpt lat="46.05456" lon="7.48333"><ele>2055</ele><time>2016-06-24T12:49:09Z</time></trkpt>
<trkpt lat="46.05459" lon="7.48332"><ele>2054.8</ele><time>2016-06-24T12:49:12Z</time></trkpt>
<trkpt lat="46.05462" lon="7.48331"><ele>2054.8</ele><time>2016-06-24T12:49:17Z</time></trkpt>
<trkpt lat="46.05472" lon="7.4833"><ele>2054.6</ele><time>2016-06-24T12:49:25Z</time></trkpt>
<trkpt lat="46.05472" lon="7.4833"><ele>2054.4</ele><time>2016-06-24T12:49:26Z</time></trkpt>
<trkpt lat="46.05482" lon="7.48327"><ele>2054.2</ele><time>2016-06-24T12:49:41Z</time></trkpt>
<trkpt lat="46.05494" lon="7.48332"><ele>2055.2</ele><time>2016-06-24T12:50:00Z</time></trkpt>
<trkpt lat="46.05494" lon="7.48332"><ele>2055.2</ele><time>2016-06-24T12:50:01Z</time></trkpt>
<trkpt lat="46.05494" lon="7.48332"><ele>2055.6</ele><time>2016-06-24T12:50:05Z</time></trkpt>
<trkpt lat="46.05508" lon="7.48332"><ele>2056.8</ele><time>2016-06-24T12:50:18Z</time></trkpt>
<trkpt lat="46.05512" lon="7.48329"><ele>2057.2</ele><time>2016-06-24T12:50:23Z</time></trkpt>
<trkpt lat="46.05513" lon="7.48328"><ele>2057.2</ele><time>2016-06-24T12:50:24Z</time></trkpt>
<trkpt lat="46.05511" lon="7.48316"><ele>2059</ele><time>2016-06-24T12:50:48Z</time></trkpt>
<trkpt lat="46.05527" lon="7.48309"><ele>2059.8</ele><time>2016-06-24T12:51:06Z</time></trkpt>
<trkpt lat="46.05544" lon="7.48296"><ele>2060.4</ele><time>2016-06-24T12:51:21Z</time></trkpt>
<trkpt lat="46.05546" lon="7.48295"><ele>2060.6</ele><time>2016-06-24T12:51:23Z</time></trkpt>
<trkpt lat="46.05557" lon="7.48284"><ele>2060.8</ele><time>2016-06-24T12:51:33Z</time></trkpt>
<trkpt lat="46.05563" lon="7.48279"><ele>2060.4</ele><time>2016-06-24T12:51:38Z</time></trkpt>
<trkpt lat="46.05583" lon="7.4827"><ele>2060.4</ele><time>2016-06-24T12:51:47Z</time></trkpt>
<trkpt lat="46.05588" lon="7.48268"><ele>2060.2</ele><time>2016-06-24T12:51:49Z</time></trkpt>
<trkpt lat="46.05593" lon="7.48267"><ele>2059.8</ele><time>2016-06-24T12:51:51Z</time></trkpt>
<trkpt lat="46.05607" lon="7.48266"><ele>2058.8</ele><time>2016-06-24T12:51:55Z</time></trkpt>
<trkpt lat="46.05613" lon="7.48266"><ele>2058</ele><time>2016-06-24T12:51:57Z</time></trkpt>
<trkpt lat="46.05631" lon="7.48275"><ele>2054.6</ele><time>2016-06-24T12:52:04Z</time></trkpt>
<trkpt lat="46.05634" lon="7.48277"><ele>2054</ele><time>2016-06-24T12:52:05Z</time></trkpt>
<trkpt lat="46.05645" lon="7.48286"><ele>2049.8</ele><time>2016-06-24T12:52:12Z</time></trkpt>
<trkpt lat="46.05645" lon="7.48286"><ele>2049.4</ele><time>2016-06-24T12:52:14Z</time></trkpt>
<trkpt lat="46.05658" lon="7.48302"><ele>2048.4</ele><time>2016-06-24T12:52:35Z</time></trkpt>
<trkpt lat="46.05662" lon="7.48314"><ele>2046.6</ele><time>2016-06-24T12:53:00Z</time></trkpt>
<trkpt lat="46.05669" lon="7.48316"><ele>2046.4</ele><time>2016-06-24T12:53:15Z</time></trkpt>
<trkpt lat="46.05677" lon="7.48319"><ele>2046</ele><time>2016-06-24T12:53:19Z</time></trkpt>
<trkpt lat="46.05682" lon="7.48323"><ele>2045.6</ele><time>2016-06-24T12:53:23Z</time></trkpt>
<trkpt lat="46.05684" lon="7.48324"><ele>2045.6</ele><time>2016-06-24T12:53:24Z</time></trkpt>
<trkpt lat="46.05689" lon="7.48324"><ele>2045.6</ele><time>2016-06-24T12:53:28Z</time></trkpt>
<trkpt lat="46.05702" lon="7.48328"><ele>2045.4</ele><time>2016-06-24T12:53:38Z</time></trkpt>
<trkpt lat="46.05704" lon="7.48327"><ele>2045.2</ele><time>2016-06-24T12:53:40Z</time></trkpt>
<trkpt lat="46.05708" lon="7.48325"><ele>2045.2</ele><time>2016-06-24T12:53:43Z</time></trkpt>
<trkpt lat="46.05718" lon="7.48327"><ele>2045.6</ele><time>2016-06-24T12:53:49Z</time></trkpt>
<trkpt lat="46.0572" lon="7.48329"><ele>2046</ele><time>2016-06-24T12:53:59Z</time></trkpt>
<trkpt lat="46.05729" lon="7.48336"><ele>2046.2</ele><time>2016-06-24T12:54:07Z</time></trkpt>
<trkpt lat="46.05745" lon="7.48344"><ele>2044.2</ele><time>2016-06-24T12:54:35Z</time></trkpt>
<trkpt lat="46.05746" lon="7.48344"><ele>2044.2</ele><time>2016-06-24T12:54:36Z</time></trkpt>
<trkpt lat="46.05747" lon="7.48344"><ele>2044.2</ele><time>2016-06-24T12:54:37Z</time></trkpt>
<trkpt lat="46.05764" lon="7.48343"><ele>2042.6</ele><time>2016-06-24T12:55:00Z</time></trkpt>
<trkpt lat="46.05776" lon="7.48339"><ele>2041.8</ele><time>2016-06-24T12:55:21Z</time></trkpt>
<trkpt lat="46.05784" lon="7.48339"><ele>2040</ele><time>2016-06-24T12:55:48Z</time></trkpt>
<trkpt lat="46.05793" lon="7.48341"><ele>2039</ele><time>2016-06-24T12:56:00Z</time></trkpt>
<trkpt lat="46.05805" lon="7.48349"><ele>2037.8</ele><time>2016-06-24T12:56:15Z</time></trkpt>
<trkpt lat="46.0581" lon="7.48354"><ele>2037.2</ele><time>2016-06-24T12:56:23Z</time></trkpt>
<trkpt lat="46.05815" lon="7.48359"><ele>2037</ele><time>2016-06-24T12:56:27Z</time></trkpt>
<trkpt lat="46.05821" lon="7.48365"><ele>2036.8</ele><time>2016-06-24T12:56:30Z</time></trkpt>
<trkpt lat="46.05845" lon="7.48396"><ele>2034.4</ele><time>2016-06-24T12:56:43Z</time></trkpt>
<trkpt lat="46.05858" lon="7.48412"><ele>2033.2</ele><time>2016-06-24T12:56:48Z</time></trkpt>
<trkpt lat="46.05863" lon="7.48438"><ele>2031.6</ele><time>2016-06-24T12:56:53Z</time></trkpt>
<trkpt lat="46.0587" lon="7.48467"><ele>2028</ele><time>2016-06-24T12:56:59Z</time></trkpt>
<trkpt lat="46.05873" lon="7.48494"><ele>2022.4</ele><time>2016-06-24T12:57:05Z</time></trkpt>
<trkpt lat="46.05881" lon="7.4852"><ele>2019.6</ele><time>2016-06-24T12:57:11Z</time></trkpt>
<trkpt lat="46.0589" lon="7.48541"><ele>2014.2</ele><time>2016-06-24T12:57:22Z</time></trkpt>
<trkpt lat="46.05889" lon="7.48542"><ele>2013</ele><time>2016-06-24T12:57:24Z</time></trkpt>
<trkpt lat="46.05891" lon="7.48559"><ele>2010.6</ele><time>2016-06-24T12:57:46Z</time></trkpt>
<trkpt lat="46.05889" lon="7.48562"><ele>2009.6</ele><time>2016-06-24T12:57:52Z</time></trkpt>
<trkpt lat="46.059" lon="7.4858"><ele>2008.6</ele><time>2016-06-24T12:58:04Z</time></trkpt>
<trkpt lat="46.05905" lon="7.48592"><ele>2007</ele><time>2016-06-24T12:58:09Z</time></trkpt>
<trkpt lat="46.05918" lon="7.4861"><ele>2003.6</ele><time>2016-06-24T12:58:17Z</time></trkpt>
<trkpt lat="46.0592" lon="7.48614"><ele>2003</ele><time>2016-06-24T12:58:19Z</time></trkpt>
<trkpt lat="46.05926" lon="7.48641"><ele>1997.4</ele><time>2016-06-24T12:58:26Z</time></trkpt>
<trkpt lat="46.05928" lon="7.48646"><ele>1995.6</ele><time>2016-06-24T12:58:29Z</time></trkpt>
<trkpt lat="46.05924" lon="7.4865"><ele>1993</ele><time>2016-06-24T12:58:33Z</time></trkpt>
<trkpt lat="46.0592" lon="7.48651"><ele>1991.6</ele><time>2016-06-24T12:58:35Z</time></trkpt>
<trkpt lat="46.05915" lon="7.48654"><ele>1989.4</ele><time>2016-06-24T12:58:39Z</time></trkpt>
<trkpt lat="46.05928" lon="7.48675"><ele>1984.4</ele><time>2016-06-24T12:58:50Z</time></trkpt>
<trkpt lat="46.05927" lon="7.48676"><ele>1984.2</ele><time>2016-06-24T12:58:55Z</time></trkpt>
<trkpt lat="46.05913" lon="7.48675"><ele>1984</ele><time>2016-06-24T12:59:10Z</time></trkpt>
<trkpt lat="46.05897" lon="7.48677"><ele>1982.8</ele><time>2016-06-24T12:59:20Z</time></trkpt>
<trkpt lat="46.05893" lon="7.48674"><ele>1982.2</ele><time>2016-06-24T12:59:22Z</time></trkpt>
<trkpt lat="46.05889" lon="7.48674"><ele>1981.4</ele><time>2016-06-24T12:59:27Z</time></trkpt>
<trkpt lat="46.0589" lon="7.48674"><ele>1981.4</ele><time>2016-06-24T12:59:30Z</time></trkpt>
<trkpt lat="46.05893" lon="7.48674"><ele>1981</ele><time>2016-06-24T12:59:36Z</time></trkpt>
<trkpt lat="46.05899" lon="7.48679"><ele>1979.6</ele><time>2016-06-24T13:00:25Z</time></trkpt>
<trkpt lat="46.05899" lon="7.48679"><ele>1979.8</ele><time>2016-06-24T13:00:29Z</time></trkpt>
<trkpt lat="46.05899" lon="7.48679"><ele>1979.8</ele><time>2016-06-24T13:00:31Z</time></trkpt>
<trkpt lat="46.05899" lon="7.48679"><ele>1979.8</ele><time>2016-06-24T13:00:32Z</time></trkpt>
<trkpt lat="46.05898" lon="7.48679"><ele>1979.8</ele><time>2016-06-24T13:00:36Z</time></trkpt>
<trkpt lat="46.05898" lon="7.4868"><ele>1979.8</ele><time>2016-06-24T13:00:38Z</time></trkpt>
<trkpt lat="46.05898" lon="7.48679"><ele>1979.6</ele><time>2016-06-24T13:00:41Z</time></trkpt>
<trkpt lat="46.05897" lon="7.48673"><ele>1979.8</ele><time>2016-06-24T13:00:49Z</time></trkpt>
<trkpt lat="46.05895" lon="7.4867"><ele>1979.4</ele><time>2016-06-24T13:01:00Z</time></trkpt>
<trkpt lat="46.05895" lon="7.48669"><ele>1979.2</ele><time>2016-06-24T13:01:07Z</time></trkpt>
<trkpt lat="46.05895" lon="7.48669"><ele>1979</ele><time>2016-06-24T13:01:12Z</time></trkpt>
<trkpt lat="46.05894" lon="7.4867"><ele>1979.2</ele><time>2016-06-24T13:01:15Z</time></trkpt>
<trkpt lat="46.05891" lon="7.48671"><ele>1979</ele><time>2016-06-24T13:01:50Z</time></trkpt>
<trkpt lat="46.05889" lon="7.4867"><ele>1979</ele><time>2016-06-24T13:02:03Z</time></trkpt>
<trkpt lat="46.05889" lon="7.48671"><ele>1979</ele><time>2016-06-24T13:02:13Z</time></trkpt>
<trkpt lat="46.05889" lon="7.48671"><ele>1978.8</ele><time>2016-06-24T13:02:16Z</time></trkpt>
<trkpt lat="46.05889" lon="7.48671"><ele>1978.8</ele><time>2016-06-24T13:02:19Z</time></trkpt>
<trkpt lat="46.0589" lon="7.48668"><ele>1978.6</ele><time>2016-06-24T13:02:34Z</time></trkpt>
<trkpt lat="46.05893" lon="7.48667"><ele>1978.4</ele><time>2016-06-24T13:02:50Z</time></trkpt>
<trkpt lat="46.05894" lon="7.48669"><ele>1978</ele><time>2016-06-24T13:02:54Z</time></trkpt>
<trkpt lat="46.05893" lon="7.48669"><ele>1978</ele><time>2016-06-24T13:02:55Z</time></trkpt>
<trkpt lat="46.05885" lon="7.48667"><ele>1977.8</ele><time>2016-06-24T13:02:59Z</time></trkpt>
<trkpt lat="46.05879" lon="7.48664"><ele>1977.6</ele><time>2016-06-24T13:03:02Z</time></trkpt>
<trkpt lat="46.0587" lon="7.48663"><ele>1977</ele><time>2016-06-24T13:03:05Z</time></trkpt>
<trkpt lat="46.05862" lon="7.48663"><ele>1976.4</ele><time>2016-06-24T13:03:07Z</time></trkpt>
<trkpt lat="46.05855" lon="7.48663"><ele>1975.6</ele><time>2016-06-24T13:03:11Z</time></trkpt>
<trkpt lat="46.05857" lon="7.48663"><ele>1975.4</ele><time>2016-06-24T13:03:16Z</time></trkpt>
<trkpt lat="46.05863" lon="7.48663"><ele>1975</ele><time>2016-06-24T13:03:19Z</time></trkpt>
<trkpt lat="46.05879" lon="7.48664"><ele>1975</ele><time>2016-06-24T13:03:27Z</time></trkpt>
<trkpt lat="46.05885" lon="7.48667"><ele>1975</ele><time>2016-06-24T13:03:31Z</time></trkpt>
<trkpt lat="46.05891" lon="7.4867"><ele>1975.4</ele><time>2016-06-24T13:03:35Z</time></trkpt>
<trkpt lat="46.05894" lon="7.4867"><ele>1975.8</ele><time>2016-06-24T13:03:38Z</time></trkpt>
<trkpt lat="46.05892" lon="7.48671"><ele>1975.6</ele><time>2016-06-24T13:03:43Z</time></trkpt>
<trkpt lat="46.05889" lon="7.48671"><ele>1975.8</ele><time>2016-06-24T13:03:47Z</time></trkpt>
<trkpt lat="46.05889" lon="7.48671"><ele>1975.6</ele><time>2016-06-24T13:03:48Z</time></trkpt>
<trkpt lat="46.05888" lon="7.4867"><ele>1975.6</ele><time>2016-06-24T13:03:49Z</time></trkpt>
<trkpt lat="46.05883" lon="7.48669"><ele>1975.4</ele><time>2016-06-24T13:03:54Z</time></trkpt>
<trkpt lat="46.05883" lon="7.48669"><ele>1975.4</ele><time>2016-06-24T13:03:55Z</time></trkpt>
<trkpt lat="46.05888" lon="7.48669"><ele>1975.4</ele><time>2016-06-24T13:04:00Z</time></trkpt>
<trkpt lat="46.05888" lon="7.4867"><ele>1976.4</ele><time>2016-06-24T13:04:12Z</time></trkpt>
<trkpt lat="46.05888" lon="7.4867"><ele>1976.6</ele><time>2016-06-24T13:04:13Z</time></trkpt>
<trkpt lat="46.05888" lon="7.4867"><ele>1976.8</ele><time>2016-06-24T13:04:14Z</time></trkpt>
<trkpt lat="46.05883" lon="7.48669"><ele>1977</ele><time>2016-06-24T13:04:21Z</time></trkpt>
<trkpt lat="46.05903" lon="7.48674"><ele>1977.2</ele><time>2016-06-24T13:04:36Z</time></trkpt>
<trkpt lat="46.05908" lon="7.48673"><ele>1977.8</ele><time>2016-06-24T13:04:40Z</time></trkpt>
<trkpt lat="46.05911" lon="7.48673"><ele>1977.6</ele><time>2016-06-24T13:04:45Z</time></trkpt>
<trkpt lat="46.05904" lon="7.48673"><ele>1977.6</ele><time>2016-06-24T13:04:51Z</time></trkpt>
<trkpt lat="46.05897" lon="7.48673"><ele>1977.2</ele><time>2016-06-24T13:04:54Z</time></trkpt>
<trkpt lat="46.05895" lon="7.48672"><ele>1977</ele><time>2016-06-24T13:04:55Z</time></trkpt>
<trkpt lat="46.05885" lon="7.48668"><ele>1975.6</ele><time>2016-06-24T13:05:00Z</time></trkpt>
<trkpt lat="46.05888" lon="7.48668"><ele>1975.4</ele><time>2016-06-24T13:05:06Z</time></trkpt>
<trkpt lat="46.05887" lon="7.48669"><ele>1975.4</ele><time>2016-06-24T13:05:10Z</time></trkpt>
<trkpt lat="46.05887" lon="7.4867"><ele>1975.4</ele><time>2016-06-24T13:05:14Z</time></trkpt>
<trkpt lat="46.05887" lon="7.48671"><ele>1975.6</ele><time>2016-06-24T13:05:30Z</time></trkpt>
<trkpt lat="46.05889" lon="7.48671"><ele>1975.8</ele><time>2016-06-24T13:05:39Z</time></trkpt>
<trkpt lat="46.05889" lon="7.4867"><ele>1975.8</ele><time>2016-06-24T13:05:41Z</time></trkpt>
<trkpt lat="46.05889" lon="7.4867"><ele>1975.8</ele><time>2016-06-24T13:05:42Z</time></trkpt>
<trkpt lat="46.0588" lon="7.48666"><ele>1975</ele><time>2016-06-24T13:06:03Z</time></trkpt>
<trkpt lat="46.05856" lon="7.48663"><ele>1974.2</ele><time>2016-06-24T13:06:11Z</time></trkpt>
<trkpt lat="46.05855" lon="7.48663"><ele>1974</ele><time>2016-06-24T13:06:12Z</time></trkpt>
<trkpt lat="46.05854" lon="7.48663"><ele>1974</ele><time>2016-06-24T13:06:17Z</time></trkpt>
<trkpt lat="46.05849" lon="7.48663"><ele>1973.6</ele><time>2016-06-24T13:06:28Z</time></trkpt>
<trkpt lat="46.05847" lon="7.48662"><ele>1973.6</ele><time>2016-06-24T13:06:31Z</time></trkpt>
<trkpt lat="46.05842" lon="7.48665"><ele>1973.2</ele><time>2016-06-24T13:06:36Z</time></trkpt>
<trkpt lat="46.05838" lon="7.48666"><ele>1973</ele><time>2016-06-24T13:06:40Z</time></trkpt>
<trkpt lat="46.05836" lon="7.48666"><ele>1972.6</ele><time>2016-06-24T13:06:42Z</time></trkpt>
<trkpt lat="46.05835" lon="7.48666"><ele>1972.6</ele><time>2016-06-24T13:06:43Z</time></trkpt>
<trkpt lat="46.05834" lon="7.48665"><ele>1972.4</ele><time>2016-06-24T13:06:44Z</time></trkpt>
<trkpt lat="46.0582" lon="7.48645"><ele>1970.8</ele><time>2016-06-24T13:07:04Z</time></trkpt>
<trkpt lat="46.05817" lon="7.48644"><ele>1970</ele><time>2016-06-24T13:07:10Z</time></trkpt>
<trkpt lat="46.0581" lon="7.48637"><ele>1969.4</ele><time>2016-06-24T13:07:17Z</time></trkpt>
<trkpt lat="46.05807" lon="7.48634"><ele>1969.2</ele><time>2016-06-24T13:07:19Z</time></trkpt>
<trkpt lat="46.05805" lon="7.48632"><ele>1969</ele><time>2016-06-24T13:07:21Z</time></trkpt>
<trkpt lat="46.05805" lon="7.48632"><ele>1969</ele><time>2016-06-24T13:07:22Z</time></trkpt>
<trkpt lat="46.05797" lon="7.48626"><ele>1968.4</ele><time>2016-06-24T13:07:27Z</time></trkpt>
<trkpt lat="46.05796" lon="7.48625"><ele>1968.2</ele><time>2016-06-24T13:07:28Z</time></trkpt>
<trkpt lat="46.05788" lon="7.48618"><ele>1967.6</ele><time>2016-06-24T13:07:36Z</time></trkpt>
<trkpt lat="46.05782" lon="7.48612"><ele>1966.6</ele><time>2016-06-24T13:07:50Z</time></trkpt>
<trkpt lat="46.05776" lon="7.48613"><ele>1965.6</ele><time>2016-06-24T13:08:00Z</time></trkpt>
<trkpt lat="46.05768" lon="7.48613"><ele>1965</ele><time>2016-06-24T13:08:09Z</time></trkpt>
<trkpt lat="46.05767" lon="7.48614"><ele>1964.8</ele><time>2016-06-24T13:08:11Z</time></trkpt>
<trkpt lat="46.05767" lon="7.48614"><ele>1964.6</ele><time>2016-06-24T13:08:13Z</time></trkpt>
<trkpt lat="46.05765" lon="7.48617"><ele>1964.2</ele><time>2016-06-24T13:08:21Z</time></trkpt>
<trkpt lat="46.05764" lon="7.48617"><ele>1964</ele><time>2016-06-24T13:08:23Z</time></trkpt>
<trkpt lat="46.05756" lon="7.48615"><ele>1963</ele><time>2016-06-24T13:08:37Z</time></trkpt>
<trkpt lat="46.05753" lon="7.48617"><ele>1962.2</ele><time>2016-06-24T13:08:44Z</time></trkpt>
<trkpt lat="46.05749" lon="7.48619"><ele>1961.6</ele><time>2016-06-24T13:08:50Z</time></trkpt>
<trkpt lat="46.05748" lon="7.4862"><ele>1961.4</ele><time>2016-06-24T13:08:56Z</time></trkpt>
<trkpt lat="46.05748" lon="7.4862"><ele>1961.2</ele><time>2016-06-24T13:08:59Z</time></trkpt>
<trkpt lat="46.05739" lon="7.48618"><ele>1959.6</ele><time>2016-06-24T13:09:22Z</time></trkpt>
<trkpt lat="46.05738" lon="7.48618"><ele>1959.4</ele><time>2016-06-24T13:09:23Z</time></trkpt>
<trkpt lat="46.05734" lon="7.48619"><ele>1959</ele><time>2016-06-24T13:09:27Z</time></trkpt>
<trkpt lat="46.05727" lon="7.48617"><ele>1957.6</ele><time>2016-06-24T13:09:36Z</time></trkpt>
<trkpt lat="46.05725" lon="7.48618"><ele>1957.2</ele><time>2016-06-24T13:09:38Z</time></trkpt>
<trkpt lat="46.05719" lon="7.48613"><ele>1955.2</ele><time>2016-06-24T13:09:52Z</time></trkpt>
<trkpt lat="46.05711" lon="7.48612"><ele>1954.2</ele><time>2016-06-24T13:09:57Z</time></trkpt>
<trkpt lat="46.0571" lon="7.48613"><ele>1953.6</ele><time>2016-06-24T13:09:59Z</time></trkpt>
<trkpt lat="46.05709" lon="7.48613"><ele>1953.2</ele><time>2016-06-24T13:10:00Z</time></trkpt>
<trkpt lat="46.05698" lon="7.48605"><ele>1948.6</ele><time>2016-06-24T13:10:19Z</time></trkpt>
<trkpt lat="46.05682" lon="7.48599"><ele>1945.6</ele><time>2016-06-24T13:10:28Z</time></trkpt>
<trkpt lat="46.05679" lon="7.48599"><ele>1944.8</ele><time>2016-06-24T13:10:31Z</time></trkpt>
<trkpt lat="46.05676" lon="7.486"><ele>1943.8</ele><time>2016-06-24T13:10:34Z</time></trkpt>
<trkpt lat="46.05669" lon="7.486"><ele>1942</ele><time>2016-06-24T13:10:41Z</time></trkpt>
<trkpt lat="46.05667" lon="7.48604"><ele>1941.6</ele><time>2016-06-24T13:10:46Z</time></trkpt>
<trkpt lat="46.0566" lon="7.48615"><ele>1940.4</ele><time>2016-06-24T13:10:57Z</time></trkpt>
<trkpt lat="46.05659" lon="7.48615"><ele>1940.2</ele><time>2016-06-24T13:10:59Z</time></trkpt>
<trkpt lat="46.05654" lon="7.4862"><ele>1940</ele><time>2016-06-24T13:11:03Z</time></trkpt>
<trkpt lat="46.05644" lon="7.48627"><ele>1939.2</ele><time>2016-06-24T13:11:08Z</time></trkpt>
<trkpt lat="46.05638" lon="7.48636"><ele>1937.4</ele><time>2016-06-24T13:11:15Z</time></trkpt>
<trkpt lat="46.05637" lon="7.48636"><ele>1937.2</ele><time>2016-06-24T13:11:16Z</time></trkpt>
<trkpt lat="46.05636" lon="7.48637"><ele>1937</ele><time>2016-06-24T13:11:19Z</time></trkpt>
<trkpt lat="46.05634" lon="7.48636"><ele>1936.4</ele><time>2016-06-24T13:11:23Z</time></trkpt>
<trkpt lat="46.05632" lon="7.48636"><ele>1935.8</ele><time>2016-06-24T13:11:26Z</time></trkpt>
<trkpt lat="46.05625" lon="7.48637"><ele>1933</ele><time>2016-06-24T13:11:39Z</time></trkpt>
<trkpt lat="46.05621" lon="7.48641"><ele>1931.6</ele><time>2016-06-24T13:11:45Z</time></trkpt>
<trkpt lat="46.0562" lon="7.48643"><ele>1931.2</ele><time>2016-06-24T13:11:47Z</time></trkpt>
<trkpt lat="46.05618" lon="7.48644"><ele>1930.4</ele><time>2016-06-24T13:11:50Z</time></trkpt>
<trkpt lat="46.05616" lon="7.48641"><ele>1929.6</ele><time>2016-06-24T13:11:53Z</time></trkpt>
<trkpt lat="46.05614" lon="7.48638"><ele>1929</ele><time>2016-06-24T13:11:56Z</time></trkpt>
<trkpt lat="46.05612" lon="7.48637"><ele>1928.6</ele><time>2016-06-24T13:11:58Z</time></trkpt>
<trkpt lat="46.05609" lon="7.48637"><ele>1927.8</ele><time>2016-06-24T13:12:01Z</time></trkpt>
<trkpt lat="46.05608" lon="7.48637"><ele>1927.6</ele><time>2016-06-24T13:12:02Z</time></trkpt>
<trkpt lat="46.05602" lon="7.48636"><ele>1926.2</ele><time>2016-06-24T13:12:07Z</time></trkpt>
<trkpt lat="46.05598" lon="7.48638"><ele>1925.4</ele><time>2016-06-24T13:12:10Z</time></trkpt>
<trkpt lat="46.05594" lon="7.48638"><ele>1924.2</ele><time>2016-06-24T13:12:14Z</time></trkpt>
<trkpt lat="46.05591" lon="7.48638"><ele>1923.2</ele><time>2016-06-24T13:12:17Z</time></trkpt>
<trkpt lat="46.05588" lon="7.48639"><ele>1922.2</ele><time>2016-06-24T13:12:20Z</time></trkpt>
<trkpt lat="46.05587" lon="7.4864"><ele>1921.8</ele><time>2016-06-24T13:12:21Z</time></trkpt>
<trkpt lat="46.05584" lon="7.48639"><ele>1921</ele><time>2016-06-24T13:12:24Z</time></trkpt>
<trkpt lat="46.05579" lon="7.48633"><ele>1920.6</ele><time>2016-06-24T13:12:33Z</time></trkpt>
<trkpt lat="46.05576" lon="7.48628"><ele>1920.6</ele><time>2016-06-24T13:12:38Z</time></trkpt>
<trkpt lat="46.05575" lon="7.48628"><ele>1920.6</ele><time>2016-06-24T13:12:40Z</time></trkpt>
<trkpt lat="46.05573" lon="7.48627"><ele>1920.2</ele><time>2016-06-24T13:12:46Z</time></trkpt>
<trkpt lat="46.05565" lon="7.48627"><ele>1919.6</ele><time>2016-06-24T13:12:59Z</time></trkpt>
<trkpt lat="46.05559" lon="7.48644"><ele>1918.4</ele><time>2016-06-24T13:13:12Z</time></trkpt>
<trkpt lat="46.0556" lon="7.48648"><ele>1918</ele><time>2016-06-24T13:13:14Z</time></trkpt>
<trkpt lat="46.0556" lon="7.48651"><ele>1918</ele><time>2016-06-24T13:13:15Z</time></trkpt>
<trkpt lat="46.05558" lon="7.48655"><ele>1917.4</ele><time>2016-06-24T13:13:18Z</time></trkpt>
<trkpt lat="46.05556" lon="7.48655"><ele>1917</ele><time>2016-06-24T13:13:21Z</time></trkpt>
<trkpt lat="46.0555" lon="7.48653"><ele>1916.4</ele><time>2016-06-24T13:13:25Z</time></trkpt>
<trkpt lat="46.05543" lon="7.4865"><ele>1916</ele><time>2016-06-24T13:13:29Z</time></trkpt>
<trkpt lat="46.05533" lon="7.48649"><ele>1915</ele><time>2016-06-24T13:13:36Z</time></trkpt>
<trkpt lat="46.05522" lon="7.48654"><ele>1911.6</ele><time>2016-06-24T13:14:01Z</time></trkpt>
<trkpt lat="46.05518" lon="7.48663"><ele>1907.8</ele><time>2016-06-24T13:14:26Z</time></trkpt>
<trkpt lat="46.05517" lon="7.48676"><ele>1906</ele><time>2016-06-24T13:14:40Z</time></trkpt>
<trkpt lat="46.05516" lon="7.48683"><ele>1904.8</ele><time>2016-06-24T13:14:48Z</time></trkpt>
<trkpt lat="46.05515" lon="7.48686"><ele>1904.6</ele><time>2016-06-24T13:14:50Z</time></trkpt>
<trkpt lat="46.05513" lon="7.48691"><ele>1903.8</ele><time>2016-06-24T13:14:55Z</time></trkpt>
<trkpt lat="46.05512" lon="7.48694"><ele>1903.4</ele><time>2016-06-24T13:14:58Z</time></trkpt>
<trkpt lat="46.0551" lon="7.48703"><ele>1902.6</ele><time>2016-06-24T13:15:04Z</time></trkpt>
<trkpt lat="46.05504" lon="7.48706"><ele>1901.6</ele><time>2016-06-24T13:15:11Z</time></trkpt>
<trkpt lat="46.05502" lon="7.48706"><ele>1900.4</ele><time>2016-06-24T13:15:20Z</time></trkpt>
<trkpt lat="46.05499" lon="7.48708"><ele>1899.6</ele><time>2016-06-24T13:15:25Z</time></trkpt>
<trkpt lat="46.05491" lon="7.48717"><ele>1899</ele><time>2016-06-24T13:15:31Z</time></trkpt>
<trkpt lat="46.05484" lon="7.48731"><ele>1896.6</ele><time>2016-06-24T13:15:49Z</time></trkpt>
<trkpt lat="46.05506" lon="7.4875"><ele>1894.6</ele><time>2016-06-24T13:16:01Z</time></trkpt>
<trkpt lat="46.05514" lon="7.48755"><ele>1894.2</ele><time>2016-06-24T13:16:05Z</time></trkpt>
<trkpt lat="46.05529" lon="7.48763"><ele>1892</ele><time>2016-06-24T13:16:12Z</time></trkpt>
<trkpt lat="46.05536" lon="7.48766"><ele>1889.2</ele><time>2016-06-24T13:16:16Z</time></trkpt>
<trkpt lat="46.05554" lon="7.48777"><ele>1887</ele><time>2016-06-24T13:16:22Z</time></trkpt>
<trkpt lat="46.0557" lon="7.48794"><ele>1885.2</ele><time>2016-06-24T13:16:28Z</time></trkpt>
<trkpt lat="46.05584" lon="7.48808"><ele>1885.6</ele><time>2016-06-24T13:16:33Z</time></trkpt>
<trkpt lat="46.05587" lon="7.48811"><ele>1885.4</ele><time>2016-06-24T13:16:34Z</time></trkpt>
<trkpt lat="46.0559" lon="7.48813"><ele>1885</ele><time>2016-06-24T13:16:35Z</time></trkpt>
<trkpt lat="46.05592" lon="7.48816"><ele>1884.6</ele><time>2016-06-24T13:16:36Z</time></trkpt>
<trkpt lat="46.05596" lon="7.48819"><ele>1884.4</ele><time>2016-06-24T13:16:37Z</time></trkpt>
<trkpt lat="46.0561" lon="7.48838"><ele>1885</ele><time>2016-06-24T13:16:44Z</time></trkpt>
<trkpt lat="46.05627" lon="7.4886"><ele>1884.2</ele><time>2016-06-24T13:16:53Z</time></trkpt>
<trkpt lat="46.05635" lon="7.48886"><ele>1884</ele><time>2016-06-24T13:16:58Z</time></trkpt>
<trkpt lat="46.0565" lon="7.48906"><ele>1883.6</ele><time>2016-06-24T13:17:04Z</time></trkpt>
<trkpt lat="46.05668" lon="7.48917"><ele>1882</ele><time>2016-06-24T13:17:10Z</time></trkpt>
<trkpt lat="46.05691" lon="7.48919"><ele>1880.2</ele><time>2016-06-24T13:17:15Z</time></trkpt>
<trkpt lat="46.0571" lon="7.48926"><ele>1880</ele><time>2016-06-24T13:17:19Z</time></trkpt>
<trkpt lat="46.05732" lon="7.48923"><ele>1879.4</ele><time>2016-06-24T13:17:24Z</time></trkpt>
<trkpt lat="46.05737" lon="7.48921"><ele>1878.8</ele><time>2016-06-24T13:17:25Z</time></trkpt>
<trkpt lat="46.05759" lon="7.4892"><ele>1877</ele><time>2016-06-24T13:17:29Z</time></trkpt>
<trkpt lat="46.05764" lon="7.48925"><ele>1876.8</ele><time>2016-06-24T13:17:30Z</time></trkpt>
<trkpt lat="46.05776" lon="7.48941"><ele>1876.8</ele><time>2016-06-24T13:17:33Z</time></trkpt>
<trkpt lat="46.05793" lon="7.48941"><ele>1875.6</ele><time>2016-06-24T13:17:37Z</time></trkpt>
<trkpt lat="46.05809" lon="7.48936"><ele>1874.8</ele><time>2016-06-24T13:17:40Z</time></trkpt>
<trkpt lat="46.05822" lon="7.48944"><ele>1874</ele><time>2016-06-24T13:17:43Z</time></trkpt>
<trkpt lat="46.05826" lon="7.48948"><ele>1873.6</ele><time>2016-06-24T13:17:44Z</time></trkpt>
<trkpt lat="46.0583" lon="7.48954"><ele>1873.4</ele><time>2016-06-24T13:17:45Z</time></trkpt>
<trkpt lat="46.05835" lon="7.4898"><ele>1870.6</ele><time>2016-06-24T13:17:49Z</time></trkpt>
<trkpt lat="46.05834" lon="7.48984"><ele>1869.8</ele><time>2016-06-24T13:17:50Z</time></trkpt>
<trkpt lat="46.05834" lon="7.48988"><ele>1869.4</ele><time>2016-06-24T13:17:51Z</time></trkpt>
<trkpt lat="46.05845" lon="7.49004"><ele>1865</ele><time>2016-06-24T13:17:57Z</time></trkpt>
<trkpt lat="46.05866" lon="7.49005"><ele>1861.2</ele><time>2016-06-24T13:18:03Z</time></trkpt>
<trkpt lat="46.05869" lon="7.49008"><ele>1860.6</ele><time>2016-06-24T13:18:04Z</time></trkpt>
<trkpt lat="46.05879" lon="7.49019"><ele>1858.2</ele><time>2016-06-24T13:18:07Z</time></trkpt>
<trkpt lat="46.05882" lon="7.49023"><ele>1857.4</ele><time>2016-06-24T13:18:08Z</time></trkpt>
<trkpt lat="46.05896" lon="7.49044"><ele>1854.2</ele><time>2016-06-24T13:18:12Z</time></trkpt>
<trkpt lat="46.05907" lon="7.49062"><ele>1851.6</ele><time>2016-06-24T13:18:15Z</time></trkpt>
<trkpt lat="46.05922" lon="7.49085"><ele>1848.4</ele><time>2016-06-24T13:18:19Z</time></trkpt>
<trkpt lat="46.05926" lon="7.49089"><ele>1847.4</ele><time>2016-06-24T13:18:20Z</time></trkpt>
<trkpt lat="46.05948" lon="7.49113"><ele>1841.8</ele><time>2016-06-24T13:18:26Z</time></trkpt>
<trkpt lat="46.05955" lon="7.49119"><ele>1839</ele><time>2016-06-24T13:18:28Z</time></trkpt>
<trkpt lat="46.05974" lon="7.49122"><ele>1834.6</ele><time>2016-06-24T13:18:32Z</time></trkpt>
<trkpt lat="46.05983" lon="7.49123"><ele>1833.4</ele><time>2016-06-24T13:18:34Z</time></trkpt>
<trkpt lat="46.05991" lon="7.49124"><ele>1832.4</ele><time>2016-06-24T13:18:36Z</time></trkpt>
<trkpt lat="46.06" lon="7.49127"><ele>1831.6</ele><time>2016-06-24T13:18:39Z</time></trkpt>
<trkpt lat="46.06003" lon="7.49127"><ele>1831.6</ele><time>2016-06-24T13:18:40Z</time></trkpt>
<trkpt lat="46.06005" lon="7.49127"><ele>1831.6</ele><time>2016-06-24T13:18:41Z</time></trkpt>
<trkpt lat="46.06007" lon="7.49128"><ele>1831.4</ele><time>2016-06-24T13:18:42Z</time></trkpt>
<trkpt lat="46.06004" lon="7.49137"><ele>1829.4</ele><time>2016-06-24T13:18:47Z</time></trkpt>
<trkpt lat="46.06002" lon="7.49139"><ele>1829</ele><time>2016-06-24T13:18:48Z</time></trkpt>
<trkpt lat="46.05992" lon="7.49135"><ele>1827.8</ele><time>2016-06-24T13:18:53Z</time></trkpt>
<trkpt lat="46.05982" lon="7.49134"><ele>1827.6</ele><time>2016-06-24T13:18:57Z</time></trkpt>
<trkpt lat="46.0597" lon="7.49134"><ele>1828</ele><time>2016-06-24T13:19:01Z</time></trkpt>
<trkpt lat="46.05965" lon="7.49135"><ele>1828.4</ele><time>2016-06-24T13:19:03Z</time></trkpt>
<trkpt lat="46.0595" lon="7.49136"><ele>1829.8</ele><time>2016-06-24T13:19:08Z</time></trkpt>
<trkpt lat="46.05931" lon="7.49137"><ele>1831.2</ele><time>2016-06-24T13:19:15Z</time></trkpt>
<trkpt lat="46.05911" lon="7.49138"><ele>1832.4</ele><time>2016-06-24T13:19:22Z</time></trkpt>
<trkpt lat="46.05902" lon="7.49137"><ele>1833</ele><time>2016-06-24T13:19:25Z</time></trkpt>
<trkpt lat="46.05891" lon="7.49131"><ele>1833</ele><time>2016-06-24T13:19:29Z</time></trkpt>
<trkpt lat="46.05874" lon="7.49123"><ele>1834.6</ele><time>2016-06-24T13:19:35Z</time></trkpt>
<trkpt lat="46.05856" lon="7.49116"><ele>1835.6</ele><time>2016-06-24T13:19:41Z</time></trkpt>
<trkpt lat="46.05837" lon="7.49107"><ele>1835.6</ele><time>2016-06-24T13:19:48Z</time></trkpt>
<trkpt lat="46.0582" lon="7.491"><ele>1835.2</ele><time>2016-06-24T13:19:54Z</time></trkpt>
<trkpt lat="46.05801" lon="7.49095"><ele>1835</ele><time>2016-06-24T13:20:00Z</time></trkpt>
<trkpt lat="46.05779" lon="7.4909"><ele>1835.6</ele><time>2016-06-24T13:20:06Z</time></trkpt>
<trkpt lat="46.0576" lon="7.49086"><ele>1836.4</ele><time>2016-06-24T13:20:11Z</time></trkpt>
<trkpt lat="46.05741" lon="7.49087"><ele>1837.8</ele><time>2016-06-24T13:20:16Z</time></trkpt>
<trkpt lat="46.05722" lon="7.49093"><ele>1838.4</ele><time>2016-06-24T13:20:21Z</time></trkpt>
<trkpt lat="46.05704" lon="7.49098"><ele>1839</ele><time>2016-06-24T13:20:26Z</time></trkpt>
<trkpt lat="46.05684" lon="7.49099"><ele>1838.8</ele><time>2016-06-24T13:20:31Z</time></trkpt>
<trkpt lat="46.05659" lon="7.491"><ele>1838</ele><time>2016-06-24T13:20:37Z</time></trkpt>
<trkpt lat="46.05651" lon="7.49098"><ele>1837.8</ele><time>2016-06-24T13:20:39Z</time></trkpt>
<trkpt lat="46.05631" lon="7.49092"><ele>1838.2</ele><time>2016-06-24T13:20:44Z</time></trkpt>
<trkpt lat="46.05611" lon="7.49082"><ele>1838.6</ele><time>2016-06-24T13:20:49Z</time></trkpt>
<trkpt lat="46.05592" lon="7.49074"><ele>1839.6</ele><time>2016-06-24T13:20:54Z</time></trkpt>
<trkpt lat="46.05572" lon="7.49073"><ele>1841.6</ele><time>2016-06-24T13:20:59Z</time></trkpt>
<trkpt lat="46.05551" lon="7.49077"><ele>1842</ele><time>2016-06-24T13:21:04Z</time></trkpt>
<trkpt lat="46.05547" lon="7.49079"><ele>1842</ele><time>2016-06-24T13:21:05Z</time></trkpt>
<trkpt lat="46.05528" lon="7.49093"><ele>1842.2</ele><time>2016-06-24T13:21:10Z</time></trkpt>
<trkpt lat="46.05508" lon="7.49098"><ele>1841.8</ele><time>2016-06-24T13:21:15Z</time></trkpt>
<trkpt lat="46.05499" lon="7.49094"><ele>1841.2</ele><time>2016-06-24T13:21:17Z</time></trkpt>
<trkpt lat="46.05482" lon="7.4908"><ele>1840.4</ele><time>2016-06-24T13:21:21Z</time></trkpt>
<trkpt lat="46.05464" lon="7.49059"><ele>1839.8</ele><time>2016-06-24T13:21:25Z</time></trkpt>
<trkpt lat="46.05451" lon="7.4904"><ele>1839.2</ele><time>2016-06-24T13:21:28Z</time></trkpt>
<trkpt lat="46.05446" lon="7.49033"><ele>1838.8</ele><time>2016-06-24T13:21:29Z</time></trkpt>
<trkpt lat="46.0544" lon="7.49028"><ele>1838.6</ele><time>2016-06-24T13:21:30Z</time></trkpt>
<trkpt lat="46.05434" lon="7.49024"><ele>1838.4</ele><time>2016-06-24T13:21:31Z</time></trkpt>
<trkpt lat="46.05419" lon="7.49021"><ele>1838.2</ele><time>2016-06-24T13:21:33Z</time></trkpt>
<trkpt lat="46.05396" lon="7.49025"><ele>1835.8</ele><time>2016-06-24T13:21:36Z</time></trkpt>
</trkseg></trk></gpx>